<?xml version="1.0" encoding="UTF-8" standalone="no" ?>
<gpx xmlns="http://www.topografix.com/GPX/1/1" xmlns:xsi="http://www.w3.org/2001/XMLSchema-instance" xsi:schemaLocation="http://www.topografix.com/GPX/1/1 http://www.topografix.com/GPX/1/1/gpx.xsd" version="1.1" creator="VisuGPX - https://www.visugpx.com">
  <metadata>
    <name>Agnac - Comencau</name>
    <desc><![CDATA[Réalisé le 18 juin 2013]]></desc>
  </metadata>
  <trk>
    <name><![CDATA[18 juin 2013 10:48:24]]></name>
    <cmt><![CDATA[18 juin 2013 10:48:24]]></cmt>
    <trkseg>
      <trkpt lat="44.34287" lon="2.52037">
        <ele>645</ele>
        <time>2013-06-18T08:48:25Z</time>
      </trkpt>
      <trkpt lat="44.34305" lon="2.51996">
        <ele>644</ele>
        <time>2013-06-18T08:48:28Z</time>
      </trkpt>
      <trkpt lat="44.34316" lon="2.51988">
        <ele>636</ele>
        <time>2013-06-18T08:48:33Z</time>
      </trkpt>
      <trkpt lat="44.3431" lon="2.51983">
        <ele>625</ele>
        <time>2013-06-18T08:48:37Z</time>
      </trkpt>
      <trkpt lat="44.34313" lon="2.51971">
        <ele>616</ele>
        <time>2013-06-18T08:48:45Z</time>
      </trkpt>
      <trkpt lat="44.34315" lon="2.51963">
        <ele>614</ele>
        <time>2013-06-18T08:48:50Z</time>
      </trkpt>
      <trkpt lat="44.34318" lon="2.51956">
        <ele>614</ele>
        <time>2013-06-18T08:48:53Z</time>
      </trkpt>
      <trkpt lat="44.34319" lon="2.5195">
        <ele>615</ele>
        <time>2013-06-18T08:48:57Z</time>
      </trkpt>
      <trkpt lat="44.34316" lon="2.51942">
        <ele>614</ele>
        <time>2013-06-18T08:49:02Z</time>
      </trkpt>
      <trkpt lat="44.34312" lon="2.5193">
        <ele>615</ele>
        <time>2013-06-18T08:49:10Z</time>
      </trkpt>
      <trkpt lat="44.34313" lon="2.51921">
        <ele>614</ele>
        <time>2013-06-18T08:49:15Z</time>
      </trkpt>
      <trkpt lat="44.34314" lon="2.51914">
        <ele>615</ele>
        <time>2013-06-18T08:49:18Z</time>
      </trkpt>
      <trkpt lat="44.34313" lon="2.51907">
        <ele>615</ele>
        <time>2013-06-18T08:49:21Z</time>
      </trkpt>
      <trkpt lat="44.34313" lon="2.519">
        <ele>615</ele>
        <time>2013-06-18T08:49:26Z</time>
      </trkpt>
      <trkpt lat="44.34312" lon="2.51894">
        <ele>615</ele>
        <time>2013-06-18T08:49:30Z</time>
      </trkpt>
      <trkpt lat="44.34312" lon="2.51887">
        <ele>615</ele>
        <time>2013-06-18T08:49:34Z</time>
      </trkpt>
      <trkpt lat="44.34307" lon="2.51882">
        <ele>615</ele>
        <time>2013-06-18T08:49:39Z</time>
      </trkpt>
      <trkpt lat="44.34301" lon="2.5188">
        <ele>616</ele>
        <time>2013-06-18T08:49:42Z</time>
      </trkpt>
      <trkpt lat="44.34297" lon="2.51879">
        <ele>615</ele>
        <time>2013-06-18T08:49:45Z</time>
      </trkpt>
      <trkpt lat="44.34292" lon="2.51878">
        <ele>615</ele>
        <time>2013-06-18T08:49:48Z</time>
      </trkpt>
      <trkpt lat="44.34283" lon="2.5188">
        <ele>616</ele>
        <time>2013-06-18T08:49:55Z</time>
      </trkpt>
      <trkpt lat="44.34277" lon="2.51882">
        <ele>615</ele>
        <time>2013-06-18T08:49:59Z</time>
      </trkpt>
      <trkpt lat="44.34271" lon="2.51884">
        <ele>615</ele>
        <time>2013-06-18T08:50:03Z</time>
      </trkpt>
      <trkpt lat="44.34265" lon="2.51885">
        <ele>615</ele>
        <time>2013-06-18T08:50:06Z</time>
      </trkpt>
      <trkpt lat="44.34255" lon="2.51884">
        <ele>616</ele>
        <time>2013-06-18T08:50:13Z</time>
      </trkpt>
      <trkpt lat="44.34246" lon="2.5188">
        <ele>617</ele>
        <time>2013-06-18T08:50:21Z</time>
      </trkpt>
      <trkpt lat="44.34237" lon="2.51876">
        <ele>615</ele>
        <time>2013-06-18T08:50:30Z</time>
      </trkpt>
      <trkpt lat="44.3422" lon="2.5186">
        <ele>606</ele>
        <time>2013-06-18T08:50:46Z</time>
      </trkpt>
      <trkpt lat="44.34212" lon="2.51851">
        <ele>605</ele>
        <time>2013-06-18T08:50:53Z</time>
      </trkpt>
      <trkpt lat="44.34203" lon="2.51845">
        <ele>603</ele>
        <time>2013-06-18T08:51:00Z</time>
      </trkpt>
      <trkpt lat="44.34195" lon="2.51837">
        <ele>602</ele>
        <time>2013-06-18T08:51:08Z</time>
      </trkpt>
      <trkpt lat="44.34188" lon="2.5183">
        <ele>602</ele>
        <time>2013-06-18T08:51:14Z</time>
      </trkpt>
      <trkpt lat="44.34182" lon="2.51825">
        <ele>602</ele>
        <time>2013-06-18T08:51:19Z</time>
      </trkpt>
      <trkpt lat="44.34174" lon="2.51818">
        <ele>603</ele>
        <time>2013-06-18T08:51:25Z</time>
      </trkpt>
      <trkpt lat="44.34166" lon="2.51811">
        <ele>605</ele>
        <time>2013-06-18T08:51:31Z</time>
      </trkpt>
      <trkpt lat="44.34161" lon="2.51806">
        <ele>605</ele>
        <time>2013-06-18T08:51:35Z</time>
      </trkpt>
      <trkpt lat="44.34158" lon="2.51802">
        <ele>605</ele>
        <time>2013-06-18T08:51:38Z</time>
      </trkpt>
      <trkpt lat="44.3415" lon="2.51793">
        <ele>607</ele>
        <time>2013-06-18T08:51:45Z</time>
      </trkpt>
      <trkpt lat="44.34146" lon="2.51789">
        <ele>608</ele>
        <time>2013-06-18T08:51:48Z</time>
      </trkpt>
      <trkpt lat="44.34142" lon="2.51784">
        <ele>609</ele>
        <time>2013-06-18T08:51:52Z</time>
      </trkpt>
      <trkpt lat="44.34138" lon="2.51779">
        <ele>610</ele>
        <time>2013-06-18T08:51:56Z</time>
      </trkpt>
      <trkpt lat="44.34131" lon="2.51774">
        <ele>612</ele>
        <time>2013-06-18T08:52:02Z</time>
      </trkpt>
      <trkpt lat="44.34126" lon="2.51769">
        <ele>613</ele>
        <time>2013-06-18T08:52:06Z</time>
      </trkpt>
      <trkpt lat="44.34121" lon="2.51763">
        <ele>612</ele>
        <time>2013-06-18T08:52:10Z</time>
      </trkpt>
      <trkpt lat="44.34116" lon="2.51754">
        <ele>613</ele>
        <time>2013-06-18T08:52:16Z</time>
      </trkpt>
      <trkpt lat="44.34113" lon="2.51749">
        <ele>613</ele>
        <time>2013-06-18T08:52:19Z</time>
      </trkpt>
      <trkpt lat="44.3411" lon="2.51745">
        <ele>613</ele>
        <time>2013-06-18T08:52:22Z</time>
      </trkpt>
      <trkpt lat="44.34106" lon="2.5174">
        <ele>615</ele>
        <time>2013-06-18T08:52:25Z</time>
      </trkpt>
      <trkpt lat="44.34104" lon="2.51734">
        <ele>616</ele>
        <time>2013-06-18T08:52:28Z</time>
      </trkpt>
      <trkpt lat="44.34101" lon="2.51728">
        <ele>617</ele>
        <time>2013-06-18T08:52:31Z</time>
      </trkpt>
      <trkpt lat="44.34098" lon="2.51721">
        <ele>617</ele>
        <time>2013-06-18T08:52:35Z</time>
      </trkpt>
      <trkpt lat="44.34095" lon="2.51717">
        <ele>617</ele>
        <time>2013-06-18T08:52:38Z</time>
      </trkpt>
      <trkpt lat="44.3409" lon="2.51711">
        <ele>616</ele>
        <time>2013-06-18T08:52:42Z</time>
      </trkpt>
      <trkpt lat="44.34086" lon="2.51708">
        <ele>615</ele>
        <time>2013-06-18T08:52:46Z</time>
      </trkpt>
      <trkpt lat="44.3408" lon="2.51707">
        <ele>616</ele>
        <time>2013-06-18T08:52:50Z</time>
      </trkpt>
      <trkpt lat="44.34074" lon="2.51706">
        <ele>616</ele>
        <time>2013-06-18T08:52:53Z</time>
      </trkpt>
      <trkpt lat="44.3407" lon="2.51706">
        <ele>617</ele>
        <time>2013-06-18T08:52:56Z</time>
      </trkpt>
      <trkpt lat="44.34065" lon="2.51705">
        <ele>617</ele>
        <time>2013-06-18T08:53:00Z</time>
      </trkpt>
      <trkpt lat="44.34059" lon="2.51704">
        <ele>618</ele>
        <time>2013-06-18T08:53:04Z</time>
      </trkpt>
      <trkpt lat="44.34053" lon="2.51702">
        <ele>618</ele>
        <time>2013-06-18T08:53:08Z</time>
      </trkpt>
      <trkpt lat="44.34048" lon="2.51701">
        <ele>617</ele>
        <time>2013-06-18T08:53:11Z</time>
      </trkpt>
      <trkpt lat="44.34043" lon="2.517">
        <ele>616</ele>
        <time>2013-06-18T08:53:14Z</time>
      </trkpt>
      <trkpt lat="44.34038" lon="2.51699">
        <ele>616</ele>
        <time>2013-06-18T08:53:17Z</time>
      </trkpt>
      <trkpt lat="44.34032" lon="2.51697">
        <ele>615</ele>
        <time>2013-06-18T08:53:20Z</time>
      </trkpt>
      <trkpt lat="44.34026" lon="2.51694">
        <ele>614</ele>
        <time>2013-06-18T08:53:24Z</time>
      </trkpt>
      <trkpt lat="44.34022" lon="2.51691">
        <ele>613</ele>
        <time>2013-06-18T08:53:28Z</time>
      </trkpt>
      <trkpt lat="44.34012" lon="2.51684">
        <ele>612</ele>
        <time>2013-06-18T08:53:35Z</time>
      </trkpt>
      <trkpt lat="44.34008" lon="2.51681">
        <ele>613</ele>
        <time>2013-06-18T08:53:38Z</time>
      </trkpt>
      <trkpt lat="44.34005" lon="2.51676">
        <ele>613</ele>
        <time>2013-06-18T08:53:42Z</time>
      </trkpt>
      <trkpt lat="44.34001" lon="2.51672">
        <ele>613</ele>
        <time>2013-06-18T08:53:45Z</time>
      </trkpt>
      <trkpt lat="44.33997" lon="2.51668">
        <ele>614</ele>
        <time>2013-06-18T08:53:48Z</time>
      </trkpt>
      <trkpt lat="44.33993" lon="2.51664">
        <ele>614</ele>
        <time>2013-06-18T08:53:52Z</time>
      </trkpt>
      <trkpt lat="44.33988" lon="2.5166">
        <ele>613</ele>
        <time>2013-06-18T08:53:55Z</time>
      </trkpt>
      <trkpt lat="44.33984" lon="2.51658">
        <ele>613</ele>
        <time>2013-06-18T08:53:58Z</time>
      </trkpt>
      <trkpt lat="44.33979" lon="2.51655">
        <ele>614</ele>
        <time>2013-06-18T08:54:02Z</time>
      </trkpt>
      <trkpt lat="44.33974" lon="2.51653">
        <ele>613</ele>
        <time>2013-06-18T08:54:05Z</time>
      </trkpt>
      <trkpt lat="44.33969" lon="2.51651">
        <ele>612</ele>
        <time>2013-06-18T08:54:08Z</time>
      </trkpt>
      <trkpt lat="44.33964" lon="2.51648">
        <ele>612</ele>
        <time>2013-06-18T08:54:13Z</time>
      </trkpt>
      <trkpt lat="44.33959" lon="2.51645">
        <ele>612</ele>
        <time>2013-06-18T08:54:17Z</time>
      </trkpt>
      <trkpt lat="44.33956" lon="2.5164">
        <ele>611</ele>
        <time>2013-06-18T08:54:20Z</time>
      </trkpt>
      <trkpt lat="44.33953" lon="2.51635">
        <ele>611</ele>
        <time>2013-06-18T08:54:23Z</time>
      </trkpt>
      <trkpt lat="44.3395" lon="2.51629">
        <ele>611</ele>
        <time>2013-06-18T08:54:26Z</time>
      </trkpt>
      <trkpt lat="44.33948" lon="2.51622">
        <ele>609</ele>
        <time>2013-06-18T08:54:30Z</time>
      </trkpt>
      <trkpt lat="44.33946" lon="2.51616">
        <ele>608</ele>
        <time>2013-06-18T08:54:34Z</time>
      </trkpt>
      <trkpt lat="44.33945" lon="2.51609">
        <ele>606</ele>
        <time>2013-06-18T08:54:38Z</time>
      </trkpt>
      <trkpt lat="44.33944" lon="2.51603">
        <ele>605</ele>
        <time>2013-06-18T08:54:41Z</time>
      </trkpt>
      <trkpt lat="44.33946" lon="2.51599">
        <ele>608</ele>
        <time>2013-06-18T08:55:10Z</time>
      </trkpt>
      <trkpt lat="44.33944" lon="2.51594">
        <ele>608</ele>
        <time>2013-06-18T08:56:16Z</time>
      </trkpt>
      <trkpt lat="44.33941" lon="2.5159">
        <ele>607</ele>
        <time>2013-06-18T08:56:37Z</time>
      </trkpt>
      <trkpt lat="44.33942" lon="2.51581">
        <ele>605</ele>
        <time>2013-06-18T08:56:54Z</time>
      </trkpt>
      <trkpt lat="44.3394" lon="2.51574">
        <ele>605</ele>
        <time>2013-06-18T08:56:59Z</time>
      </trkpt>
      <trkpt lat="44.33936" lon="2.51568">
        <ele>604</ele>
        <time>2013-06-18T08:57:03Z</time>
      </trkpt>
      <trkpt lat="44.3393" lon="2.51563">
        <ele>603</ele>
        <time>2013-06-18T08:57:08Z</time>
      </trkpt>
      <trkpt lat="44.33926" lon="2.51558">
        <ele>602</ele>
        <time>2013-06-18T08:57:12Z</time>
      </trkpt>
      <trkpt lat="44.33922" lon="2.51554">
        <ele>601</ele>
        <time>2013-06-18T08:57:16Z</time>
      </trkpt>
      <trkpt lat="44.33919" lon="2.51546">
        <ele>600</ele>
        <time>2013-06-18T08:57:20Z</time>
      </trkpt>
      <trkpt lat="44.33917" lon="2.51539">
        <ele>599</ele>
        <time>2013-06-18T08:57:24Z</time>
      </trkpt>
      <trkpt lat="44.33914" lon="2.51526">
        <ele>597</ele>
        <time>2013-06-18T08:57:30Z</time>
      </trkpt>
      <trkpt lat="44.33914" lon="2.51519">
        <ele>597</ele>
        <time>2013-06-18T08:57:33Z</time>
      </trkpt>
      <trkpt lat="44.33914" lon="2.51511">
        <ele>596</ele>
        <time>2013-06-18T08:57:37Z</time>
      </trkpt>
      <trkpt lat="44.33914" lon="2.51502">
        <ele>597</ele>
        <time>2013-06-18T08:57:41Z</time>
      </trkpt>
      <trkpt lat="44.33915" lon="2.51495">
        <ele>596</ele>
        <time>2013-06-18T08:57:44Z</time>
      </trkpt>
      <trkpt lat="44.33915" lon="2.51487">
        <ele>596</ele>
        <time>2013-06-18T08:57:47Z</time>
      </trkpt>
      <trkpt lat="44.33916" lon="2.51481">
        <ele>596</ele>
        <time>2013-06-18T08:57:50Z</time>
      </trkpt>
      <trkpt lat="44.33915" lon="2.51473">
        <ele>595</ele>
        <time>2013-06-18T08:57:55Z</time>
      </trkpt>
      <trkpt lat="44.33916" lon="2.51465">
        <ele>596</ele>
        <time>2013-06-18T08:57:59Z</time>
      </trkpt>
      <trkpt lat="44.33915" lon="2.51458">
        <ele>595</ele>
        <time>2013-06-18T08:58:04Z</time>
      </trkpt>
      <trkpt lat="44.33912" lon="2.51453">
        <ele>594</ele>
        <time>2013-06-18T08:58:08Z</time>
      </trkpt>
      <trkpt lat="44.33907" lon="2.51451">
        <ele>593</ele>
        <time>2013-06-18T08:58:11Z</time>
      </trkpt>
      <trkpt lat="44.33902" lon="2.51451">
        <ele>592</ele>
        <time>2013-06-18T08:58:15Z</time>
      </trkpt>
      <trkpt lat="44.33898" lon="2.51452">
        <ele>592</ele>
        <time>2013-06-18T08:58:19Z</time>
      </trkpt>
      <trkpt lat="44.33893" lon="2.51454">
        <ele>590</ele>
        <time>2013-06-18T08:58:24Z</time>
      </trkpt>
      <trkpt lat="44.33888" lon="2.51456">
        <ele>589</ele>
        <time>2013-06-18T08:58:30Z</time>
      </trkpt>
      <trkpt lat="44.33884" lon="2.51457">
        <ele>587</ele>
        <time>2013-06-18T08:58:34Z</time>
      </trkpt>
      <trkpt lat="44.33876" lon="2.51461">
        <ele>584</ele>
        <time>2013-06-18T08:58:39Z</time>
      </trkpt>
      <trkpt lat="44.33871" lon="2.51464">
        <ele>583</ele>
        <time>2013-06-18T08:58:43Z</time>
      </trkpt>
      <trkpt lat="44.33866" lon="2.51466">
        <ele>582</ele>
        <time>2013-06-18T08:58:46Z</time>
      </trkpt>
      <trkpt lat="44.3386" lon="2.51469">
        <ele>581</ele>
        <time>2013-06-18T08:58:49Z</time>
      </trkpt>
      <trkpt lat="44.33855" lon="2.51472">
        <ele>579</ele>
        <time>2013-06-18T08:58:53Z</time>
      </trkpt>
      <trkpt lat="44.33853" lon="2.51475">
        <ele>578</ele>
        <time>2013-06-18T08:59:00Z</time>
      </trkpt>
      <trkpt lat="44.33851" lon="2.51484">
        <ele>576</ele>
        <time>2013-06-18T09:00:34Z</time>
      </trkpt>
      <trkpt lat="44.33849" lon="2.51491">
        <ele>575</ele>
        <time>2013-06-18T09:00:38Z</time>
      </trkpt>
      <trkpt lat="44.33847" lon="2.51498">
        <ele>574</ele>
        <time>2013-06-18T09:00:42Z</time>
      </trkpt>
      <trkpt lat="44.33848" lon="2.51504">
        <ele>574</ele>
        <time>2013-06-18T09:00:45Z</time>
      </trkpt>
      <trkpt lat="44.33847" lon="2.51511">
        <ele>573</ele>
        <time>2013-06-18T09:00:50Z</time>
      </trkpt>
      <trkpt lat="44.33841" lon="2.5151">
        <ele>573</ele>
        <time>2013-06-18T09:00:54Z</time>
      </trkpt>
      <trkpt lat="44.33835" lon="2.51508">
        <ele>572</ele>
        <time>2013-06-18T09:00:58Z</time>
      </trkpt>
      <trkpt lat="44.33831" lon="2.51505">
        <ele>572</ele>
        <time>2013-06-18T09:01:01Z</time>
      </trkpt>
      <trkpt lat="44.33826" lon="2.515">
        <ele>570</ele>
        <time>2013-06-18T09:01:06Z</time>
      </trkpt>
      <trkpt lat="44.3382" lon="2.51489">
        <ele>566</ele>
        <time>2013-06-18T09:01:14Z</time>
      </trkpt>
      <trkpt lat="44.3382" lon="2.5148">
        <ele>566</ele>
        <time>2013-06-18T09:01:18Z</time>
      </trkpt>
      <trkpt lat="44.33815" lon="2.51468">
        <ele>567</ele>
        <time>2013-06-18T09:01:24Z</time>
      </trkpt>
      <trkpt lat="44.33813" lon="2.51463">
        <ele>568</ele>
        <time>2013-06-18T09:01:27Z</time>
      </trkpt>
      <trkpt lat="44.33811" lon="2.51456">
        <ele>568</ele>
        <time>2013-06-18T09:01:30Z</time>
      </trkpt>
      <trkpt lat="44.33811" lon="2.51447">
        <ele>569</ele>
        <time>2013-06-18T09:01:34Z</time>
      </trkpt>
      <trkpt lat="44.33811" lon="2.5144">
        <ele>569</ele>
        <time>2013-06-18T09:01:37Z</time>
      </trkpt>
      <trkpt lat="44.33812" lon="2.51433">
        <ele>569</ele>
        <time>2013-06-18T09:01:40Z</time>
      </trkpt>
      <trkpt lat="44.33812" lon="2.51427">
        <ele>568</ele>
        <time>2013-06-18T09:01:43Z</time>
      </trkpt>
      <trkpt lat="44.33813" lon="2.51419">
        <ele>568</ele>
        <time>2013-06-18T09:01:46Z</time>
      </trkpt>
      <trkpt lat="44.33814" lon="2.51412">
        <ele>568</ele>
        <time>2013-06-18T09:01:50Z</time>
      </trkpt>
      <trkpt lat="44.33815" lon="2.51405">
        <ele>568</ele>
        <time>2013-06-18T09:01:54Z</time>
      </trkpt>
      <trkpt lat="44.33816" lon="2.51397">
        <ele>568</ele>
        <time>2013-06-18T09:01:58Z</time>
      </trkpt>
      <trkpt lat="44.33818" lon="2.51392">
        <ele>567</ele>
        <time>2013-06-18T09:02:01Z</time>
      </trkpt>
      <trkpt lat="44.3382" lon="2.51384">
        <ele>567</ele>
        <time>2013-06-18T09:02:04Z</time>
      </trkpt>
      <trkpt lat="44.3382" lon="2.51378">
        <ele>567</ele>
        <time>2013-06-18T09:02:08Z</time>
      </trkpt>
      <trkpt lat="44.33821" lon="2.51372">
        <ele>566</ele>
        <time>2013-06-18T09:02:11Z</time>
      </trkpt>
      <trkpt lat="44.33822" lon="2.51368">
        <ele>566</ele>
        <time>2013-06-18T09:02:18Z</time>
      </trkpt>
      <trkpt lat="44.33818" lon="2.51363">
        <ele>565</ele>
        <time>2013-06-18T09:02:23Z</time>
      </trkpt>
      <trkpt lat="44.33813" lon="2.51364">
        <ele>564</ele>
        <time>2013-06-18T09:02:28Z</time>
      </trkpt>
      <trkpt lat="44.33805" lon="2.51372">
        <ele>559</ele>
        <time>2013-06-18T09:02:35Z</time>
      </trkpt>
      <trkpt lat="44.338" lon="2.51377">
        <ele>558</ele>
        <time>2013-06-18T09:02:39Z</time>
      </trkpt>
      <trkpt lat="44.33796" lon="2.51381">
        <ele>557</ele>
        <time>2013-06-18T09:02:42Z</time>
      </trkpt>
      <trkpt lat="44.33792" lon="2.51385">
        <ele>555</ele>
        <time>2013-06-18T09:02:45Z</time>
      </trkpt>
      <trkpt lat="44.33787" lon="2.5139">
        <ele>554</ele>
        <time>2013-06-18T09:02:49Z</time>
      </trkpt>
      <trkpt lat="44.33783" lon="2.51396">
        <ele>553</ele>
        <time>2013-06-18T09:02:53Z</time>
      </trkpt>
      <trkpt lat="44.33779" lon="2.51402">
        <ele>553</ele>
        <time>2013-06-18T09:02:57Z</time>
      </trkpt>
      <trkpt lat="44.33775" lon="2.51408">
        <ele>552</ele>
        <time>2013-06-18T09:03:01Z</time>
      </trkpt>
      <trkpt lat="44.33772" lon="2.51413">
        <ele>553</ele>
        <time>2013-06-18T09:03:05Z</time>
      </trkpt>
      <trkpt lat="44.33768" lon="2.51417">
        <ele>552</ele>
        <time>2013-06-18T09:03:08Z</time>
      </trkpt>
      <trkpt lat="44.33764" lon="2.51422">
        <ele>551</ele>
        <time>2013-06-18T09:03:12Z</time>
      </trkpt>
      <trkpt lat="44.33759" lon="2.5143">
        <ele>551</ele>
        <time>2013-06-18T09:03:19Z</time>
      </trkpt>
      <trkpt lat="44.33754" lon="2.51433">
        <ele>551</ele>
        <time>2013-06-18T09:03:22Z</time>
      </trkpt>
      <trkpt lat="44.33748" lon="2.51433">
        <ele>551</ele>
        <time>2013-06-18T09:03:25Z</time>
      </trkpt>
      <trkpt lat="44.33745" lon="2.51428">
        <ele>551</ele>
        <time>2013-06-18T09:03:29Z</time>
      </trkpt>
      <trkpt lat="44.33744" lon="2.5142">
        <ele>552</ele>
        <time>2013-06-18T09:03:33Z</time>
      </trkpt>
      <trkpt lat="44.33743" lon="2.51414">
        <ele>553</ele>
        <time>2013-06-18T09:03:36Z</time>
      </trkpt>
      <trkpt lat="44.33743" lon="2.51407">
        <ele>553</ele>
        <time>2013-06-18T09:03:39Z</time>
      </trkpt>
      <trkpt lat="44.33744" lon="2.51399">
        <ele>553</ele>
        <time>2013-06-18T09:03:42Z</time>
      </trkpt>
      <trkpt lat="44.33745" lon="2.51393">
        <ele>554</ele>
        <time>2013-06-18T09:03:45Z</time>
      </trkpt>
      <trkpt lat="44.33746" lon="2.51386">
        <ele>554</ele>
        <time>2013-06-18T09:03:48Z</time>
      </trkpt>
      <trkpt lat="44.33748" lon="2.5138">
        <ele>553</ele>
        <time>2013-06-18T09:03:51Z</time>
      </trkpt>
      <trkpt lat="44.33749" lon="2.51373">
        <ele>553</ele>
        <time>2013-06-18T09:03:56Z</time>
      </trkpt>
      <trkpt lat="44.3375" lon="2.51367">
        <ele>552</ele>
        <time>2013-06-18T09:04:00Z</time>
      </trkpt>
      <trkpt lat="44.33752" lon="2.5136">
        <ele>551</ele>
        <time>2013-06-18T09:04:04Z</time>
      </trkpt>
      <trkpt lat="44.33754" lon="2.51353">
        <ele>550</ele>
        <time>2013-06-18T09:04:08Z</time>
      </trkpt>
      <trkpt lat="44.33754" lon="2.51345">
        <ele>550</ele>
        <time>2013-06-18T09:04:11Z</time>
      </trkpt>
      <trkpt lat="44.33756" lon="2.51338">
        <ele>549</ele>
        <time>2013-06-18T09:04:15Z</time>
      </trkpt>
      <trkpt lat="44.33759" lon="2.5133">
        <ele>549</ele>
        <time>2013-06-18T09:04:19Z</time>
      </trkpt>
      <trkpt lat="44.3376" lon="2.51323">
        <ele>548</ele>
        <time>2013-06-18T09:04:22Z</time>
      </trkpt>
      <trkpt lat="44.33761" lon="2.51317">
        <ele>547</ele>
        <time>2013-06-18T09:04:25Z</time>
      </trkpt>
      <trkpt lat="44.33762" lon="2.5131">
        <ele>547</ele>
        <time>2013-06-18T09:04:30Z</time>
      </trkpt>
      <trkpt lat="44.33763" lon="2.51303">
        <ele>547</ele>
        <time>2013-06-18T09:04:34Z</time>
      </trkpt>
      <trkpt lat="44.33764" lon="2.51295">
        <ele>547</ele>
        <time>2013-06-18T09:04:38Z</time>
      </trkpt>
      <trkpt lat="44.33766" lon="2.51287">
        <ele>546</ele>
        <time>2013-06-18T09:04:42Z</time>
      </trkpt>
      <trkpt lat="44.33767" lon="2.5128">
        <ele>544</ele>
        <time>2013-06-18T09:04:46Z</time>
      </trkpt>
      <trkpt lat="44.33767" lon="2.51273">
        <ele>544</ele>
        <time>2013-06-18T09:04:49Z</time>
      </trkpt>
      <trkpt lat="44.33768" lon="2.51266">
        <ele>543</ele>
        <time>2013-06-18T09:04:52Z</time>
      </trkpt>
      <trkpt lat="44.33769" lon="2.51258">
        <ele>543</ele>
        <time>2013-06-18T09:04:55Z</time>
      </trkpt>
      <trkpt lat="44.33771" lon="2.5125">
        <ele>543</ele>
        <time>2013-06-18T09:04:58Z</time>
      </trkpt>
      <trkpt lat="44.33773" lon="2.51244">
        <ele>543</ele>
        <time>2013-06-18T09:05:01Z</time>
      </trkpt>
      <trkpt lat="44.33774" lon="2.51237">
        <ele>542</ele>
        <time>2013-06-18T09:05:05Z</time>
      </trkpt>
      <trkpt lat="44.33775" lon="2.5123">
        <ele>541</ele>
        <time>2013-06-18T09:05:09Z</time>
      </trkpt>
      <trkpt lat="44.33777" lon="2.51221">
        <ele>539</ele>
        <time>2013-06-18T09:05:14Z</time>
      </trkpt>
      <trkpt lat="44.33777" lon="2.51214">
        <ele>539</ele>
        <time>2013-06-18T09:05:17Z</time>
      </trkpt>
      <trkpt lat="44.33779" lon="2.51207">
        <ele>539</ele>
        <time>2013-06-18T09:05:21Z</time>
      </trkpt>
      <trkpt lat="44.33779" lon="2.512">
        <ele>539</ele>
        <time>2013-06-18T09:05:24Z</time>
      </trkpt>
      <trkpt lat="44.33779" lon="2.51193">
        <ele>538</ele>
        <time>2013-06-18T09:05:27Z</time>
      </trkpt>
      <trkpt lat="44.33779" lon="2.51184">
        <ele>537</ele>
        <time>2013-06-18T09:05:30Z</time>
      </trkpt>
      <trkpt lat="44.33781" lon="2.51177">
        <ele>537</ele>
        <time>2013-06-18T09:05:32Z</time>
      </trkpt>
      <trkpt lat="44.33783" lon="2.51169">
        <ele>538</ele>
        <time>2013-06-18T09:05:36Z</time>
      </trkpt>
      <trkpt lat="44.33783" lon="2.51162">
        <ele>537</ele>
        <time>2013-06-18T09:05:41Z</time>
      </trkpt>
      <trkpt lat="44.33785" lon="2.51155">
        <ele>537</ele>
        <time>2013-06-18T09:05:44Z</time>
      </trkpt>
      <trkpt lat="44.33786" lon="2.51149">
        <ele>536</ele>
        <time>2013-06-18T09:05:47Z</time>
      </trkpt>
      <trkpt lat="44.33788" lon="2.51142">
        <ele>536</ele>
        <time>2013-06-18T09:05:50Z</time>
      </trkpt>
      <trkpt lat="44.33789" lon="2.51135">
        <ele>535</ele>
        <time>2013-06-18T09:05:54Z</time>
      </trkpt>
      <trkpt lat="44.33791" lon="2.51127">
        <ele>534</ele>
        <time>2013-06-18T09:05:58Z</time>
      </trkpt>
      <trkpt lat="44.33793" lon="2.51122">
        <ele>533</ele>
        <time>2013-06-18T09:06:01Z</time>
      </trkpt>
      <trkpt lat="44.33795" lon="2.51115">
        <ele>533</ele>
        <time>2013-06-18T09:06:04Z</time>
      </trkpt>
      <trkpt lat="44.33798" lon="2.51108">
        <ele>533</ele>
        <time>2013-06-18T09:06:08Z</time>
      </trkpt>
      <trkpt lat="44.33801" lon="2.51102">
        <ele>532</ele>
        <time>2013-06-18T09:06:11Z</time>
      </trkpt>
      <trkpt lat="44.33803" lon="2.51096">
        <ele>532</ele>
        <time>2013-06-18T09:06:14Z</time>
      </trkpt>
      <trkpt lat="44.33806" lon="2.51088">
        <ele>531</ele>
        <time>2013-06-18T09:06:18Z</time>
      </trkpt>
      <trkpt lat="44.33809" lon="2.51082">
        <ele>531</ele>
        <time>2013-06-18T09:06:22Z</time>
      </trkpt>
      <trkpt lat="44.33812" lon="2.51073">
        <ele>531</ele>
        <time>2013-06-18T09:06:27Z</time>
      </trkpt>
      <trkpt lat="44.33814" lon="2.51068">
        <ele>531</ele>
        <time>2013-06-18T09:06:30Z</time>
      </trkpt>
      <trkpt lat="44.33817" lon="2.51061">
        <ele>531</ele>
        <time>2013-06-18T09:06:34Z</time>
      </trkpt>
      <trkpt lat="44.33819" lon="2.51055">
        <ele>531</ele>
        <time>2013-06-18T09:06:38Z</time>
      </trkpt>
      <trkpt lat="44.33823" lon="2.51049">
        <ele>530</ele>
        <time>2013-06-18T09:06:43Z</time>
      </trkpt>
      <trkpt lat="44.33827" lon="2.51043">
        <ele>529</ele>
        <time>2013-06-18T09:06:46Z</time>
      </trkpt>
      <trkpt lat="44.3383" lon="2.51039">
        <ele>529</ele>
        <time>2013-06-18T09:06:49Z</time>
      </trkpt>
      <trkpt lat="44.33835" lon="2.51035">
        <ele>527</ele>
        <time>2013-06-18T09:06:53Z</time>
      </trkpt>
      <trkpt lat="44.33841" lon="2.51033">
        <ele>527</ele>
        <time>2013-06-18T09:06:58Z</time>
      </trkpt>
      <trkpt lat="44.3385" lon="2.51037">
        <ele>525</ele>
        <time>2013-06-18T09:07:04Z</time>
      </trkpt>
      <trkpt lat="44.33854" lon="2.51042">
        <ele>524</ele>
        <time>2013-06-18T09:07:08Z</time>
      </trkpt>
      <trkpt lat="44.33859" lon="2.51048">
        <ele>521</ele>
        <time>2013-06-18T09:07:13Z</time>
      </trkpt>
      <trkpt lat="44.33864" lon="2.51053">
        <ele>521</ele>
        <time>2013-06-18T09:07:17Z</time>
      </trkpt>
      <trkpt lat="44.33869" lon="2.51057">
        <ele>521</ele>
        <time>2013-06-18T09:07:20Z</time>
      </trkpt>
      <trkpt lat="44.33877" lon="2.51065">
        <ele>519</ele>
        <time>2013-06-18T09:07:27Z</time>
      </trkpt>
      <trkpt lat="44.33885" lon="2.51073">
        <ele>517</ele>
        <time>2013-06-18T09:07:34Z</time>
      </trkpt>
      <trkpt lat="44.33893" lon="2.51082">
        <ele>516</ele>
        <time>2013-06-18T09:07:41Z</time>
      </trkpt>
      <trkpt lat="44.33905" lon="2.51088">
        <ele>516</ele>
        <time>2013-06-18T09:07:48Z</time>
      </trkpt>
      <trkpt lat="44.33914" lon="2.51092">
        <ele>516</ele>
        <time>2013-06-18T09:07:53Z</time>
      </trkpt>
      <trkpt lat="44.33923" lon="2.51093">
        <ele>515</ele>
        <time>2013-06-18T09:08:01Z</time>
      </trkpt>
      <trkpt lat="44.33932" lon="2.51097">
        <ele>515</ele>
        <time>2013-06-18T09:08:07Z</time>
      </trkpt>
      <trkpt lat="44.33941" lon="2.51099">
        <ele>515</ele>
        <time>2013-06-18T09:08:13Z</time>
      </trkpt>
      <trkpt lat="44.3395" lon="2.51101">
        <ele>516</ele>
        <time>2013-06-18T09:08:19Z</time>
      </trkpt>
      <trkpt lat="44.33959" lon="2.51103">
        <ele>515</ele>
        <time>2013-06-18T09:08:27Z</time>
      </trkpt>
      <trkpt lat="44.33968" lon="2.511">
        <ele>512</ele>
        <time>2013-06-18T09:08:35Z</time>
      </trkpt>
      <trkpt lat="44.33978" lon="2.51095">
        <ele>513</ele>
        <time>2013-06-18T09:08:41Z</time>
      </trkpt>
      <trkpt lat="44.33988" lon="2.51092">
        <ele>511</ele>
        <time>2013-06-18T09:08:47Z</time>
      </trkpt>
      <trkpt lat="44.33997" lon="2.51085">
        <ele>510</ele>
        <time>2013-06-18T09:08:52Z</time>
      </trkpt>
      <trkpt lat="44.34006" lon="2.51083">
        <ele>510</ele>
        <time>2013-06-18T09:08:58Z</time>
      </trkpt>
      <trkpt lat="44.34015" lon="2.51078">
        <ele>510</ele>
        <time>2013-06-18T09:09:07Z</time>
      </trkpt>
      <trkpt lat="44.34022" lon="2.51069">
        <ele>513</ele>
        <time>2013-06-18T09:09:13Z</time>
      </trkpt>
      <trkpt lat="44.34031" lon="2.5106">
        <ele>515</ele>
        <time>2013-06-18T09:09:19Z</time>
      </trkpt>
      <trkpt lat="44.34038" lon="2.5105">
        <ele>519</ele>
        <time>2013-06-18T09:09:24Z</time>
      </trkpt>
      <trkpt lat="44.34045" lon="2.51039">
        <ele>521</ele>
        <time>2013-06-18T09:09:29Z</time>
      </trkpt>
      <trkpt lat="44.34049" lon="2.51027">
        <ele>522</ele>
        <time>2013-06-18T09:09:37Z</time>
      </trkpt>
      <trkpt lat="44.34053" lon="2.51015">
        <ele>523</ele>
        <time>2013-06-18T09:09:43Z</time>
      </trkpt>
      <trkpt lat="44.34059" lon="2.51002">
        <ele>523</ele>
        <time>2013-06-18T09:09:50Z</time>
      </trkpt>
      <trkpt lat="44.34064" lon="2.50992">
        <ele>524</ele>
        <time>2013-06-18T09:09:55Z</time>
      </trkpt>
      <trkpt lat="44.34069" lon="2.50977">
        <ele>527</ele>
        <time>2013-06-18T09:10:02Z</time>
      </trkpt>
      <trkpt lat="44.34073" lon="2.50966">
        <ele>530</ele>
        <time>2013-06-18T09:10:09Z</time>
      </trkpt>
      <trkpt lat="44.34077" lon="2.50954">
        <ele>532</ele>
        <time>2013-06-18T09:10:15Z</time>
      </trkpt>
      <trkpt lat="44.34077" lon="2.50941">
        <ele>533</ele>
        <time>2013-06-18T09:10:24Z</time>
      </trkpt>
      <trkpt lat="44.34074" lon="2.50935">
        <ele>530</ele>
        <time>2013-06-18T09:10:37Z</time>
      </trkpt>
      <trkpt lat="44.34044" lon="2.50911">
        <ele>505</ele>
        <time>2013-06-18T09:11:07Z</time>
      </trkpt>
      <trkpt lat="44.3404" lon="2.50908">
        <ele>505</ele>
        <time>2013-06-18T09:11:11Z</time>
      </trkpt>
      <trkpt lat="44.34035" lon="2.50916">
        <ele>506</ele>
        <time>2013-06-18T09:12:08Z</time>
      </trkpt>
      <trkpt lat="44.34026" lon="2.50918">
        <ele>503</ele>
        <time>2013-06-18T09:12:16Z</time>
      </trkpt>
      <trkpt lat="44.34014" lon="2.50924">
        <ele>499</ele>
        <time>2013-06-18T09:12:28Z</time>
      </trkpt>
      <trkpt lat="44.34008" lon="2.50927">
        <ele>498</ele>
        <time>2013-06-18T09:12:31Z</time>
      </trkpt>
      <trkpt lat="44.34004" lon="2.50929">
        <ele>496</ele>
        <time>2013-06-18T09:12:35Z</time>
      </trkpt>
      <trkpt lat="44.33998" lon="2.50928">
        <ele>496</ele>
        <time>2013-06-18T09:12:39Z</time>
      </trkpt>
      <trkpt lat="44.33994" lon="2.50927">
        <ele>496</ele>
        <time>2013-06-18T09:12:41Z</time>
      </trkpt>
      <trkpt lat="44.33987" lon="2.50927">
        <ele>497</ele>
        <time>2013-06-18T09:12:44Z</time>
      </trkpt>
      <trkpt lat="44.33982" lon="2.50925">
        <ele>499</ele>
        <time>2013-06-18T09:12:47Z</time>
      </trkpt>
      <trkpt lat="44.33975" lon="2.50923">
        <ele>501</ele>
        <time>2013-06-18T09:12:53Z</time>
      </trkpt>
      <trkpt lat="44.33971" lon="2.50923">
        <ele>501</ele>
        <time>2013-06-18T09:12:56Z</time>
      </trkpt>
      <trkpt lat="44.33966" lon="2.50924">
        <ele>502</ele>
        <time>2013-06-18T09:12:59Z</time>
      </trkpt>
      <trkpt lat="44.3396" lon="2.50924">
        <ele>503</ele>
        <time>2013-06-18T09:13:03Z</time>
      </trkpt>
      <trkpt lat="44.33954" lon="2.50923">
        <ele>503</ele>
        <time>2013-06-18T09:13:07Z</time>
      </trkpt>
      <trkpt lat="44.3395" lon="2.50923">
        <ele>503</ele>
        <time>2013-06-18T09:13:10Z</time>
      </trkpt>
      <trkpt lat="44.33944" lon="2.50923">
        <ele>504</ele>
        <time>2013-06-18T09:13:13Z</time>
      </trkpt>
      <trkpt lat="44.33939" lon="2.50924">
        <ele>505</ele>
        <time>2013-06-18T09:13:18Z</time>
      </trkpt>
      <trkpt lat="44.33934" lon="2.50923">
        <ele>506</ele>
        <time>2013-06-18T09:13:23Z</time>
      </trkpt>
      <trkpt lat="44.33929" lon="2.50922">
        <ele>505</ele>
        <time>2013-06-18T09:13:28Z</time>
      </trkpt>
      <trkpt lat="44.33923" lon="2.50923">
        <ele>505</ele>
        <time>2013-06-18T09:13:35Z</time>
      </trkpt>
      <trkpt lat="44.33918" lon="2.5092">
        <ele>504</ele>
        <time>2013-06-18T09:13:38Z</time>
      </trkpt>
      <trkpt lat="44.33913" lon="2.50917">
        <ele>502</ele>
        <time>2013-06-18T09:13:42Z</time>
      </trkpt>
      <trkpt lat="44.33909" lon="2.50915">
        <ele>501</ele>
        <time>2013-06-18T09:13:50Z</time>
      </trkpt>
      <trkpt lat="44.33903" lon="2.50912">
        <ele>499</ele>
        <time>2013-06-18T09:13:55Z</time>
      </trkpt>
      <trkpt lat="44.33897" lon="2.50909">
        <ele>498</ele>
        <time>2013-06-18T09:13:59Z</time>
      </trkpt>
      <trkpt lat="44.33892" lon="2.50904">
        <ele>497</ele>
        <time>2013-06-18T09:14:03Z</time>
      </trkpt>
      <trkpt lat="44.33886" lon="2.50891">
        <ele>498</ele>
        <time>2013-06-18T09:14:08Z</time>
      </trkpt>
      <trkpt lat="44.3388" lon="2.50876">
        <ele>497</ele>
        <time>2013-06-18T09:14:14Z</time>
      </trkpt>
      <trkpt lat="44.33875" lon="2.50864">
        <ele>496</ele>
        <time>2013-06-18T09:14:22Z</time>
      </trkpt>
      <trkpt lat="44.3387" lon="2.50852">
        <ele>496</ele>
        <time>2013-06-18T09:14:27Z</time>
      </trkpt>
      <trkpt lat="44.33862" lon="2.50842">
        <ele>493</ele>
        <time>2013-06-18T09:14:35Z</time>
      </trkpt>
      <trkpt lat="44.33856" lon="2.50832">
        <ele>491</ele>
        <time>2013-06-18T09:14:45Z</time>
      </trkpt>
      <trkpt lat="44.33847" lon="2.50827">
        <ele>495</ele>
        <time>2013-06-18T09:14:53Z</time>
      </trkpt>
      <trkpt lat="44.33837" lon="2.50823">
        <ele>498</ele>
        <time>2013-06-18T09:14:59Z</time>
      </trkpt>
      <trkpt lat="44.33828" lon="2.50815">
        <ele>499</ele>
        <time>2013-06-18T09:15:07Z</time>
      </trkpt>
      <trkpt lat="44.3382" lon="2.5081">
        <ele>499</ele>
        <time>2013-06-18T09:15:12Z</time>
      </trkpt>
      <trkpt lat="44.33809" lon="2.50805">
        <ele>495</ele>
        <time>2013-06-18T09:15:26Z</time>
      </trkpt>
      <trkpt lat="44.338" lon="2.508">
        <ele>490</ele>
        <time>2013-06-18T09:15:35Z</time>
      </trkpt>
      <trkpt lat="44.33791" lon="2.50792">
        <ele>490</ele>
        <time>2013-06-18T09:15:41Z</time>
      </trkpt>
      <trkpt lat="44.33782" lon="2.50785">
        <ele>491</ele>
        <time>2013-06-18T09:15:44Z</time>
      </trkpt>
      <trkpt lat="44.33771" lon="2.50783">
        <ele>493</ele>
        <time>2013-06-18T09:15:49Z</time>
      </trkpt>
      <trkpt lat="44.33762" lon="2.50777">
        <ele>496</ele>
        <time>2013-06-18T09:15:55Z</time>
      </trkpt>
      <trkpt lat="44.33737" lon="2.50777">
        <ele>511</ele>
        <time>2013-06-18T09:16:12Z</time>
      </trkpt>
      <trkpt lat="44.33745" lon="2.50775">
        <ele>523</ele>
        <time>2013-06-18T09:16:26Z</time>
      </trkpt>
      <trkpt lat="44.33757" lon="2.50773">
        <ele>528</ele>
        <time>2013-06-18T09:16:36Z</time>
      </trkpt>
      <trkpt lat="44.33761" lon="2.50767">
        <ele>530</ele>
        <time>2013-06-18T09:16:40Z</time>
      </trkpt>
      <trkpt lat="44.33766" lon="2.50761">
        <ele>532</ele>
        <time>2013-06-18T09:16:43Z</time>
      </trkpt>
      <trkpt lat="44.33769" lon="2.50756">
        <ele>534</ele>
        <time>2013-06-18T09:16:46Z</time>
      </trkpt>
      <trkpt lat="44.33772" lon="2.5075">
        <ele>534</ele>
        <time>2013-06-18T09:16:50Z</time>
      </trkpt>
      <trkpt lat="44.33779" lon="2.50741">
        <ele>536</ele>
        <time>2013-06-18T09:17:01Z</time>
      </trkpt>
      <trkpt lat="44.33783" lon="2.50736">
        <ele>537</ele>
        <time>2013-06-18T09:17:03Z</time>
      </trkpt>
      <trkpt lat="44.33787" lon="2.5073">
        <ele>536</ele>
        <time>2013-06-18T09:17:06Z</time>
      </trkpt>
      <trkpt lat="44.33791" lon="2.50725">
        <ele>537</ele>
        <time>2013-06-18T09:17:09Z</time>
      </trkpt>
      <trkpt lat="44.33794" lon="2.50718">
        <ele>538</ele>
        <time>2013-06-18T09:17:13Z</time>
      </trkpt>
      <trkpt lat="44.33797" lon="2.50711">
        <ele>538</ele>
        <time>2013-06-18T09:17:17Z</time>
      </trkpt>
      <trkpt lat="44.33799" lon="2.50703">
        <ele>537</ele>
        <time>2013-06-18T09:17:20Z</time>
      </trkpt>
      <trkpt lat="44.33802" lon="2.50696">
        <ele>537</ele>
        <time>2013-06-18T09:17:24Z</time>
      </trkpt>
      <trkpt lat="44.33805" lon="2.5069">
        <ele>536</ele>
        <time>2013-06-18T09:17:28Z</time>
      </trkpt>
      <trkpt lat="44.33806" lon="2.50684">
        <ele>536</ele>
        <time>2013-06-18T09:17:32Z</time>
      </trkpt>
      <trkpt lat="44.33808" lon="2.50678">
        <ele>535</ele>
        <time>2013-06-18T09:17:35Z</time>
      </trkpt>
      <trkpt lat="44.3381" lon="2.50671">
        <ele>534</ele>
        <time>2013-06-18T09:17:40Z</time>
      </trkpt>
      <trkpt lat="44.33814" lon="2.50659">
        <ele>535</ele>
        <time>2013-06-18T09:17:50Z</time>
      </trkpt>
      <trkpt lat="44.3382" lon="2.50649">
        <ele>534</ele>
        <time>2013-06-18T09:17:55Z</time>
      </trkpt>
      <trkpt lat="44.33827" lon="2.50639">
        <ele>531</ele>
        <time>2013-06-18T09:18:01Z</time>
      </trkpt>
      <trkpt lat="44.33828" lon="2.50623">
        <ele>530</ele>
        <time>2013-06-18T09:18:12Z</time>
      </trkpt>
      <trkpt lat="44.33825" lon="2.50616">
        <ele>529</ele>
        <time>2013-06-18T09:18:15Z</time>
      </trkpt>
      <trkpt lat="44.33822" lon="2.50603">
        <ele>530</ele>
        <time>2013-06-18T09:18:23Z</time>
      </trkpt>
      <trkpt lat="44.33823" lon="2.50595">
        <ele>529</ele>
        <time>2013-06-18T09:18:27Z</time>
      </trkpt>
      <trkpt lat="44.33825" lon="2.50587">
        <ele>528</ele>
        <time>2013-06-18T09:18:32Z</time>
      </trkpt>
      <trkpt lat="44.33828" lon="2.50581">
        <ele>529</ele>
        <time>2013-06-18T09:18:36Z</time>
      </trkpt>
      <trkpt lat="44.33831" lon="2.50575">
        <ele>528</ele>
        <time>2013-06-18T09:18:39Z</time>
      </trkpt>
      <trkpt lat="44.33833" lon="2.50567">
        <ele>529</ele>
        <time>2013-06-18T09:18:44Z</time>
      </trkpt>
      <trkpt lat="44.33839" lon="2.50555">
        <ele>528</ele>
        <time>2013-06-18T09:18:52Z</time>
      </trkpt>
      <trkpt lat="44.33842" lon="2.50547">
        <ele>528</ele>
        <time>2013-06-18T09:18:57Z</time>
      </trkpt>
      <trkpt lat="44.33845" lon="2.50542">
        <ele>528</ele>
        <time>2013-06-18T09:19:00Z</time>
      </trkpt>
      <trkpt lat="44.33849" lon="2.50537">
        <ele>528</ele>
        <time>2013-06-18T09:19:03Z</time>
      </trkpt>
      <trkpt lat="44.33852" lon="2.50532">
        <ele>528</ele>
        <time>2013-06-18T09:19:06Z</time>
      </trkpt>
      <trkpt lat="44.33856" lon="2.50526">
        <ele>529</ele>
        <time>2013-06-18T09:19:11Z</time>
      </trkpt>
      <trkpt lat="44.3386" lon="2.5052">
        <ele>529</ele>
        <time>2013-06-18T09:19:15Z</time>
      </trkpt>
      <trkpt lat="44.33864" lon="2.50516">
        <ele>530</ele>
        <time>2013-06-18T09:19:19Z</time>
      </trkpt>
      <trkpt lat="44.33867" lon="2.50511">
        <ele>530</ele>
        <time>2013-06-18T09:19:23Z</time>
      </trkpt>
      <trkpt lat="44.3387" lon="2.50506">
        <ele>531</ele>
        <time>2013-06-18T09:19:27Z</time>
      </trkpt>
      <trkpt lat="44.33873" lon="2.50501">
        <ele>532</ele>
        <time>2013-06-18T09:19:31Z</time>
      </trkpt>
      <trkpt lat="44.33879" lon="2.50489">
        <ele>533</ele>
        <time>2013-06-18T09:19:40Z</time>
      </trkpt>
      <trkpt lat="44.33889" lon="2.50478">
        <ele>532</ele>
        <time>2013-06-18T09:19:50Z</time>
      </trkpt>
      <trkpt lat="44.33893" lon="2.50472">
        <ele>531</ele>
        <time>2013-06-18T09:19:53Z</time>
      </trkpt>
      <trkpt lat="44.33897" lon="2.50468">
        <ele>532</ele>
        <time>2013-06-18T09:19:56Z</time>
      </trkpt>
      <trkpt lat="44.33902" lon="2.50462">
        <ele>531</ele>
        <time>2013-06-18T09:20:01Z</time>
      </trkpt>
      <trkpt lat="44.33906" lon="2.50457">
        <ele>531</ele>
        <time>2013-06-18T09:20:05Z</time>
      </trkpt>
      <trkpt lat="44.33909" lon="2.50451">
        <ele>532</ele>
        <time>2013-06-18T09:20:09Z</time>
      </trkpt>
      <trkpt lat="44.33913" lon="2.50444">
        <ele>532</ele>
        <time>2013-06-18T09:20:14Z</time>
      </trkpt>
      <trkpt lat="44.33915" lon="2.50438">
        <ele>533</ele>
        <time>2013-06-18T09:20:18Z</time>
      </trkpt>
      <trkpt lat="44.33916" lon="2.5043">
        <ele>534</ele>
        <time>2013-06-18T09:20:21Z</time>
      </trkpt>
      <trkpt lat="44.33917" lon="2.50423">
        <ele>534</ele>
        <time>2013-06-18T09:20:24Z</time>
      </trkpt>
      <trkpt lat="44.33918" lon="2.50415">
        <ele>535</ele>
        <time>2013-06-18T09:20:28Z</time>
      </trkpt>
      <trkpt lat="44.33918" lon="2.50408">
        <ele>535</ele>
        <time>2013-06-18T09:20:31Z</time>
      </trkpt>
      <trkpt lat="44.33917" lon="2.504">
        <ele>536</ele>
        <time>2013-06-18T09:20:35Z</time>
      </trkpt>
      <trkpt lat="44.33916" lon="2.50392">
        <ele>536</ele>
        <time>2013-06-18T09:20:39Z</time>
      </trkpt>
      <trkpt lat="44.33915" lon="2.50386">
        <ele>535</ele>
        <time>2013-06-18T09:20:43Z</time>
      </trkpt>
      <trkpt lat="44.33913" lon="2.50378">
        <ele>535</ele>
        <time>2013-06-18T09:20:47Z</time>
      </trkpt>
      <trkpt lat="44.33913" lon="2.5037">
        <ele>536</ele>
        <time>2013-06-18T09:20:51Z</time>
      </trkpt>
      <trkpt lat="44.33912" lon="2.50363">
        <ele>538</ele>
        <time>2013-06-18T09:20:55Z</time>
      </trkpt>
      <trkpt lat="44.33912" lon="2.50356">
        <ele>538</ele>
        <time>2013-06-18T09:20:59Z</time>
      </trkpt>
      <trkpt lat="44.3391" lon="2.50348">
        <ele>539</ele>
        <time>2013-06-18T09:21:03Z</time>
      </trkpt>
      <trkpt lat="44.33907" lon="2.50341">
        <ele>539</ele>
        <time>2013-06-18T09:21:07Z</time>
      </trkpt>
      <trkpt lat="44.33904" lon="2.50333">
        <ele>538</ele>
        <time>2013-06-18T09:21:18Z</time>
      </trkpt>
      <trkpt lat="44.33903" lon="2.50326">
        <ele>537</ele>
        <time>2013-06-18T09:21:24Z</time>
      </trkpt>
      <trkpt lat="44.33902" lon="2.50318">
        <ele>537</ele>
        <time>2013-06-18T09:21:28Z</time>
      </trkpt>
      <trkpt lat="44.33902" lon="2.5031">
        <ele>536</ele>
        <time>2013-06-18T09:21:33Z</time>
      </trkpt>
      <trkpt lat="44.33901" lon="2.50304">
        <ele>534</ele>
        <time>2013-06-18T09:21:37Z</time>
      </trkpt>
      <trkpt lat="44.339" lon="2.50297">
        <ele>533</ele>
        <time>2013-06-18T09:21:40Z</time>
      </trkpt>
      <trkpt lat="44.33899" lon="2.50288">
        <ele>532</ele>
        <time>2013-06-18T09:21:44Z</time>
      </trkpt>
      <trkpt lat="44.33897" lon="2.5028">
        <ele>530</ele>
        <time>2013-06-18T09:21:50Z</time>
      </trkpt>
      <trkpt lat="44.33896" lon="2.50274">
        <ele>530</ele>
        <time>2013-06-18T09:21:55Z</time>
      </trkpt>
      <trkpt lat="44.33896" lon="2.50265">
        <ele>529</ele>
        <time>2013-06-18T09:21:59Z</time>
      </trkpt>
      <trkpt lat="44.33895" lon="2.50257">
        <ele>528</ele>
        <time>2013-06-18T09:22:03Z</time>
      </trkpt>
      <trkpt lat="44.33895" lon="2.50249">
        <ele>526</ele>
        <time>2013-06-18T09:22:08Z</time>
      </trkpt>
      <trkpt lat="44.33895" lon="2.50242">
        <ele>524</ele>
        <time>2013-06-18T09:22:12Z</time>
      </trkpt>
      <trkpt lat="44.33896" lon="2.50235">
        <ele>524</ele>
        <time>2013-06-18T09:22:16Z</time>
      </trkpt>
      <trkpt lat="44.33897" lon="2.50227">
        <ele>523</ele>
        <time>2013-06-18T09:22:21Z</time>
      </trkpt>
      <trkpt lat="44.33896" lon="2.50221">
        <ele>522</ele>
        <time>2013-06-18T09:22:25Z</time>
      </trkpt>
      <trkpt lat="44.33896" lon="2.50213">
        <ele>522</ele>
        <time>2013-06-18T09:22:30Z</time>
      </trkpt>
      <trkpt lat="44.33896" lon="2.50203">
        <ele>522</ele>
        <time>2013-06-18T09:22:34Z</time>
      </trkpt>
      <trkpt lat="44.33896" lon="2.50195">
        <ele>523</ele>
        <time>2013-06-18T09:22:38Z</time>
      </trkpt>
      <trkpt lat="44.33895" lon="2.50187">
        <ele>522</ele>
        <time>2013-06-18T09:22:43Z</time>
      </trkpt>
      <trkpt lat="44.33894" lon="2.50179">
        <ele>522</ele>
        <time>2013-06-18T09:22:47Z</time>
      </trkpt>
      <trkpt lat="44.33895" lon="2.50171">
        <ele>521</ele>
        <time>2013-06-18T09:22:51Z</time>
      </trkpt>
      <trkpt lat="44.33894" lon="2.50163">
        <ele>519</ele>
        <time>2013-06-18T09:22:56Z</time>
      </trkpt>
      <trkpt lat="44.33893" lon="2.50155">
        <ele>518</ele>
        <time>2013-06-18T09:22:59Z</time>
      </trkpt>
      <trkpt lat="44.33894" lon="2.50148">
        <ele>516</ele>
        <time>2013-06-18T09:23:04Z</time>
      </trkpt>
      <trkpt lat="44.33895" lon="2.50141">
        <ele>516</ele>
        <time>2013-06-18T09:23:07Z</time>
      </trkpt>
      <trkpt lat="44.33894" lon="2.50134">
        <ele>516</ele>
        <time>2013-06-18T09:23:10Z</time>
      </trkpt>
      <trkpt lat="44.33893" lon="2.50127">
        <ele>514</ele>
        <time>2013-06-18T09:23:15Z</time>
      </trkpt>
      <trkpt lat="44.33889" lon="2.50122">
        <ele>513</ele>
        <time>2013-06-18T09:23:20Z</time>
      </trkpt>
      <trkpt lat="44.33869" lon="2.50102">
        <ele>499</ele>
        <time>2013-06-18T09:23:43Z</time>
      </trkpt>
      <trkpt lat="44.33864" lon="2.501">
        <ele>499</ele>
        <time>2013-06-18T09:23:46Z</time>
      </trkpt>
      <trkpt lat="44.3386" lon="2.50094">
        <ele>500</ele>
        <time>2013-06-18T09:23:48Z</time>
      </trkpt>
      <trkpt lat="44.33857" lon="2.50089">
        <ele>503</ele>
        <time>2013-06-18T09:23:51Z</time>
      </trkpt>
      <trkpt lat="44.33854" lon="2.50084">
        <ele>504</ele>
        <time>2013-06-18T09:23:55Z</time>
      </trkpt>
      <trkpt lat="44.33853" lon="2.50075">
        <ele>505</ele>
        <time>2013-06-18T09:23:59Z</time>
      </trkpt>
      <trkpt lat="44.33852" lon="2.50067">
        <ele>505</ele>
        <time>2013-06-18T09:24:02Z</time>
      </trkpt>
      <trkpt lat="44.3385" lon="2.50061">
        <ele>506</ele>
        <time>2013-06-18T09:24:05Z</time>
      </trkpt>
      <trkpt lat="44.33847" lon="2.50056">
        <ele>507</ele>
        <time>2013-06-18T09:24:08Z</time>
      </trkpt>
      <trkpt lat="44.33844" lon="2.5005">
        <ele>506</ele>
        <time>2013-06-18T09:24:11Z</time>
      </trkpt>
      <trkpt lat="44.33841" lon="2.50044">
        <ele>504</ele>
        <time>2013-06-18T09:24:15Z</time>
      </trkpt>
      <trkpt lat="44.33839" lon="2.50036">
        <ele>503</ele>
        <time>2013-06-18T09:24:18Z</time>
      </trkpt>
      <trkpt lat="44.33836" lon="2.50029">
        <ele>502</ele>
        <time>2013-06-18T09:24:21Z</time>
      </trkpt>
      <trkpt lat="44.33832" lon="2.50023">
        <ele>503</ele>
        <time>2013-06-18T09:24:25Z</time>
      </trkpt>
      <trkpt lat="44.33829" lon="2.50018">
        <ele>503</ele>
        <time>2013-06-18T09:24:29Z</time>
      </trkpt>
      <trkpt lat="44.33826" lon="2.50013">
        <ele>503</ele>
        <time>2013-06-18T09:24:33Z</time>
      </trkpt>
      <trkpt lat="44.33823" lon="2.50007">
        <ele>502</ele>
        <time>2013-06-18T09:24:36Z</time>
      </trkpt>
      <trkpt lat="44.3382" lon="2.50002">
        <ele>501</ele>
        <time>2013-06-18T09:24:39Z</time>
      </trkpt>
      <trkpt lat="44.33816" lon="2.49996">
        <ele>500</ele>
        <time>2013-06-18T09:24:42Z</time>
      </trkpt>
      <trkpt lat="44.33812" lon="2.49991">
        <ele>499</ele>
        <time>2013-06-18T09:24:45Z</time>
      </trkpt>
      <trkpt lat="44.33808" lon="2.49987">
        <ele>498</ele>
        <time>2013-06-18T09:24:49Z</time>
      </trkpt>
      <trkpt lat="44.33803" lon="2.49982">
        <ele>496</ele>
        <time>2013-06-18T09:24:53Z</time>
      </trkpt>
      <trkpt lat="44.33798" lon="2.49977">
        <ele>495</ele>
        <time>2013-06-18T09:24:57Z</time>
      </trkpt>
      <trkpt lat="44.33794" lon="2.49974">
        <ele>493</ele>
        <time>2013-06-18T09:25:01Z</time>
      </trkpt>
      <trkpt lat="44.33786" lon="2.49969">
        <ele>492</ele>
        <time>2013-06-18T09:25:07Z</time>
      </trkpt>
      <trkpt lat="44.33781" lon="2.49966">
        <ele>491</ele>
        <time>2013-06-18T09:25:10Z</time>
      </trkpt>
      <trkpt lat="44.33772" lon="2.49961">
        <ele>491</ele>
        <time>2013-06-18T09:25:15Z</time>
      </trkpt>
      <trkpt lat="44.33768" lon="2.49957">
        <ele>491</ele>
        <time>2013-06-18T09:25:19Z</time>
      </trkpt>
      <trkpt lat="44.33764" lon="2.49953">
        <ele>491</ele>
        <time>2013-06-18T09:25:23Z</time>
      </trkpt>
      <trkpt lat="44.33756" lon="2.49949">
        <ele>491</ele>
        <time>2013-06-18T09:25:32Z</time>
      </trkpt>
      <trkpt lat="44.33752" lon="2.49945">
        <ele>492</ele>
        <time>2013-06-18T09:25:44Z</time>
      </trkpt>
      <trkpt lat="44.33751" lon="2.49939">
        <ele>495</ele>
        <time>2013-06-18T09:25:54Z</time>
      </trkpt>
      <trkpt lat="44.33742" lon="2.49935">
        <ele>495</ele>
        <time>2013-06-18T09:26:01Z</time>
      </trkpt>
      <trkpt lat="44.33736" lon="2.49925">
        <ele>495</ele>
        <time>2013-06-18T09:26:08Z</time>
      </trkpt>
      <trkpt lat="44.33727" lon="2.49921">
        <ele>490</ele>
        <time>2013-06-18T09:26:22Z</time>
      </trkpt>
      <trkpt lat="44.33719" lon="2.49913">
        <ele>489</ele>
        <time>2013-06-18T09:26:31Z</time>
      </trkpt>
      <trkpt lat="44.33715" lon="2.49899">
        <ele>493</ele>
        <time>2013-06-18T09:26:39Z</time>
      </trkpt>
      <trkpt lat="44.33705" lon="2.49892">
        <ele>496</ele>
        <time>2013-06-18T09:26:44Z</time>
      </trkpt>
      <trkpt lat="44.33695" lon="2.49886">
        <ele>497</ele>
        <time>2013-06-18T09:26:48Z</time>
      </trkpt>
      <trkpt lat="44.33687" lon="2.49882">
        <ele>496</ele>
        <time>2013-06-18T09:26:53Z</time>
      </trkpt>
      <trkpt lat="44.33681" lon="2.49871">
        <ele>494</ele>
        <time>2013-06-18T09:26:59Z</time>
      </trkpt>
      <trkpt lat="44.33676" lon="2.4986">
        <ele>493</ele>
        <time>2013-06-18T09:27:05Z</time>
      </trkpt>
      <trkpt lat="44.33674" lon="2.49847">
        <ele>492</ele>
        <time>2013-06-18T09:27:09Z</time>
      </trkpt>
      <trkpt lat="44.33671" lon="2.49835">
        <ele>494</ele>
        <time>2013-06-18T09:27:14Z</time>
      </trkpt>
      <trkpt lat="44.33665" lon="2.49823">
        <ele>496</ele>
        <time>2013-06-18T09:27:20Z</time>
      </trkpt>
      <trkpt lat="44.33662" lon="2.49811">
        <ele>496</ele>
        <time>2013-06-18T09:27:25Z</time>
      </trkpt>
      <trkpt lat="44.33658" lon="2.49799">
        <ele>496</ele>
        <time>2013-06-18T09:27:32Z</time>
      </trkpt>
      <trkpt lat="44.33653" lon="2.49787">
        <ele>495</ele>
        <time>2013-06-18T09:27:43Z</time>
      </trkpt>
      <trkpt lat="44.33645" lon="2.49779">
        <ele>495</ele>
        <time>2013-06-18T09:27:49Z</time>
      </trkpt>
      <trkpt lat="44.33641" lon="2.49767">
        <ele>493</ele>
        <time>2013-06-18T09:27:57Z</time>
      </trkpt>
      <trkpt lat="44.33637" lon="2.49753">
        <ele>493</ele>
        <time>2013-06-18T09:28:07Z</time>
      </trkpt>
      <trkpt lat="44.33629" lon="2.49743">
        <ele>494</ele>
        <time>2013-06-18T09:28:11Z</time>
      </trkpt>
      <trkpt lat="44.33626" lon="2.49729">
        <ele>495</ele>
        <time>2013-06-18T09:28:17Z</time>
      </trkpt>
      <trkpt lat="44.3362" lon="2.49717">
        <ele>495</ele>
        <time>2013-06-18T09:28:28Z</time>
      </trkpt>
      <trkpt lat="44.33615" lon="2.49707">
        <ele>497</ele>
        <time>2013-06-18T09:28:35Z</time>
      </trkpt>
      <trkpt lat="44.33611" lon="2.49695">
        <ele>500</ele>
        <time>2013-06-18T09:28:44Z</time>
      </trkpt>
      <trkpt lat="44.33608" lon="2.49682">
        <ele>499</ele>
        <time>2013-06-18T09:28:48Z</time>
      </trkpt>
      <trkpt lat="44.33605" lon="2.49671">
        <ele>498</ele>
        <time>2013-06-18T09:28:52Z</time>
      </trkpt>
      <trkpt lat="44.336" lon="2.49659">
        <ele>496</ele>
        <time>2013-06-18T09:28:56Z</time>
      </trkpt>
      <trkpt lat="44.33596" lon="2.49646">
        <ele>495</ele>
        <time>2013-06-18T09:29:04Z</time>
      </trkpt>
      <trkpt lat="44.33598" lon="2.49632">
        <ele>497</ele>
        <time>2013-06-18T09:29:10Z</time>
      </trkpt>
      <trkpt lat="44.33603" lon="2.49619">
        <ele>503</ele>
        <time>2013-06-18T09:29:15Z</time>
      </trkpt>
      <trkpt lat="44.33607" lon="2.49606">
        <ele>507</ele>
        <time>2013-06-18T09:29:21Z</time>
      </trkpt>
      <trkpt lat="44.33615" lon="2.49599">
        <ele>509</ele>
        <time>2013-06-18T09:29:27Z</time>
      </trkpt>
      <trkpt lat="44.33618" lon="2.49586">
        <ele>511</ele>
        <time>2013-06-18T09:29:35Z</time>
      </trkpt>
      <trkpt lat="44.33617" lon="2.49574">
        <ele>511</ele>
        <time>2013-06-18T09:29:42Z</time>
      </trkpt>
      <trkpt lat="44.33615" lon="2.49561">
        <ele>510</ele>
        <time>2013-06-18T09:29:48Z</time>
      </trkpt>
      <trkpt lat="44.33615" lon="2.49546">
        <ele>510</ele>
        <time>2013-06-18T09:29:54Z</time>
      </trkpt>
      <trkpt lat="44.33615" lon="2.49538">
        <ele>511</ele>
        <time>2013-06-18T09:29:58Z</time>
      </trkpt>
      <trkpt lat="44.33616" lon="2.49529">
        <ele>510</ele>
        <time>2013-06-18T09:30:02Z</time>
      </trkpt>
      <trkpt lat="44.33618" lon="2.49522">
        <ele>509</ele>
        <time>2013-06-18T09:30:06Z</time>
      </trkpt>
      <trkpt lat="44.33622" lon="2.49516">
        <ele>508</ele>
        <time>2013-06-18T09:30:10Z</time>
      </trkpt>
      <trkpt lat="44.33625" lon="2.49507">
        <ele>507</ele>
        <time>2013-06-18T09:30:16Z</time>
      </trkpt>
      <trkpt lat="44.33626" lon="2.49499">
        <ele>507</ele>
        <time>2013-06-18T09:30:19Z</time>
      </trkpt>
      <trkpt lat="44.33628" lon="2.49492">
        <ele>507</ele>
        <time>2013-06-18T09:30:23Z</time>
      </trkpt>
      <trkpt lat="44.3363" lon="2.49487">
        <ele>506</ele>
        <time>2013-06-18T09:30:26Z</time>
      </trkpt>
      <trkpt lat="44.33633" lon="2.4948">
        <ele>507</ele>
        <time>2013-06-18T09:30:30Z</time>
      </trkpt>
      <trkpt lat="44.33636" lon="2.49475">
        <ele>507</ele>
        <time>2013-06-18T09:30:34Z</time>
      </trkpt>
      <trkpt lat="44.33643" lon="2.49469">
        <ele>506</ele>
        <time>2013-06-18T09:30:39Z</time>
      </trkpt>
      <trkpt lat="44.33647" lon="2.49465">
        <ele>506</ele>
        <time>2013-06-18T09:30:42Z</time>
      </trkpt>
      <trkpt lat="44.33651" lon="2.4946">
        <ele>507</ele>
        <time>2013-06-18T09:30:46Z</time>
      </trkpt>
      <trkpt lat="44.33655" lon="2.49457">
        <ele>508</ele>
        <time>2013-06-18T09:30:49Z</time>
      </trkpt>
      <trkpt lat="44.33659" lon="2.49452">
        <ele>508</ele>
        <time>2013-06-18T09:30:53Z</time>
      </trkpt>
      <trkpt lat="44.33664" lon="2.49448">
        <ele>506</ele>
        <time>2013-06-18T09:30:57Z</time>
      </trkpt>
      <trkpt lat="44.33669" lon="2.49443">
        <ele>504</ele>
        <time>2013-06-18T09:31:01Z</time>
      </trkpt>
      <trkpt lat="44.33673" lon="2.49438">
        <ele>502</ele>
        <time>2013-06-18T09:31:05Z</time>
      </trkpt>
      <trkpt lat="44.33678" lon="2.49434">
        <ele>501</ele>
        <time>2013-06-18T09:31:09Z</time>
      </trkpt>
      <trkpt lat="44.33683" lon="2.4943">
        <ele>501</ele>
        <time>2013-06-18T09:31:12Z</time>
      </trkpt>
      <trkpt lat="44.3369" lon="2.49424">
        <ele>502</ele>
        <time>2013-06-18T09:31:17Z</time>
      </trkpt>
      <trkpt lat="44.33695" lon="2.4942">
        <ele>503</ele>
        <time>2013-06-18T09:31:20Z</time>
      </trkpt>
      <trkpt lat="44.33699" lon="2.49414">
        <ele>502</ele>
        <time>2013-06-18T09:31:24Z</time>
      </trkpt>
      <trkpt lat="44.33706" lon="2.49404">
        <ele>502</ele>
        <time>2013-06-18T09:31:31Z</time>
      </trkpt>
      <trkpt lat="44.33709" lon="2.49399">
        <ele>502</ele>
        <time>2013-06-18T09:31:34Z</time>
      </trkpt>
      <trkpt lat="44.33713" lon="2.49395">
        <ele>503</ele>
        <time>2013-06-18T09:31:38Z</time>
      </trkpt>
      <trkpt lat="44.33721" lon="2.49387">
        <ele>503</ele>
        <time>2013-06-18T09:31:45Z</time>
      </trkpt>
      <trkpt lat="44.33725" lon="2.49382">
        <ele>504</ele>
        <time>2013-06-18T09:31:48Z</time>
      </trkpt>
      <trkpt lat="44.33731" lon="2.49377">
        <ele>504</ele>
        <time>2013-06-18T09:31:53Z</time>
      </trkpt>
      <trkpt lat="44.33736" lon="2.49374">
        <ele>505</ele>
        <time>2013-06-18T09:31:56Z</time>
      </trkpt>
      <trkpt lat="44.33745" lon="2.49368">
        <ele>505</ele>
        <time>2013-06-18T09:32:03Z</time>
      </trkpt>
      <trkpt lat="44.33753" lon="2.4936">
        <ele>505</ele>
        <time>2013-06-18T09:32:10Z</time>
      </trkpt>
      <trkpt lat="44.33761" lon="2.49352">
        <ele>504</ele>
        <time>2013-06-18T09:32:16Z</time>
      </trkpt>
      <trkpt lat="44.33768" lon="2.49345">
        <ele>503</ele>
        <time>2013-06-18T09:32:22Z</time>
      </trkpt>
      <trkpt lat="44.33773" lon="2.49334">
        <ele>503</ele>
        <time>2013-06-18T09:32:30Z</time>
      </trkpt>
      <trkpt lat="44.33776" lon="2.49319">
        <ele>501</ele>
        <time>2013-06-18T09:32:38Z</time>
      </trkpt>
      <trkpt lat="44.33778" lon="2.4931">
        <ele>500</ele>
        <time>2013-06-18T09:32:45Z</time>
      </trkpt>
      <trkpt lat="44.33784" lon="2.49296">
        <ele>498</ele>
        <time>2013-06-18T09:32:53Z</time>
      </trkpt>
      <trkpt lat="44.33785" lon="2.49282">
        <ele>496</ele>
        <time>2013-06-18T09:33:02Z</time>
      </trkpt>
      <trkpt lat="44.33791" lon="2.4927">
        <ele>496</ele>
        <time>2013-06-18T09:33:07Z</time>
      </trkpt>
      <trkpt lat="44.33798" lon="2.49259">
        <ele>497</ele>
        <time>2013-06-18T09:33:15Z</time>
      </trkpt>
      <trkpt lat="44.33804" lon="2.49251">
        <ele>498</ele>
        <time>2013-06-18T09:33:22Z</time>
      </trkpt>
      <trkpt lat="44.33807" lon="2.49246">
        <ele>499</ele>
        <time>2013-06-18T09:33:26Z</time>
      </trkpt>
      <trkpt lat="44.33811" lon="2.49241">
        <ele>500</ele>
        <time>2013-06-18T09:33:29Z</time>
      </trkpt>
      <trkpt lat="44.33815" lon="2.49236">
        <ele>502</ele>
        <time>2013-06-18T09:33:33Z</time>
      </trkpt>
      <trkpt lat="44.33817" lon="2.4923">
        <ele>502</ele>
        <time>2013-06-18T09:33:36Z</time>
      </trkpt>
      <trkpt lat="44.33819" lon="2.49224">
        <ele>502</ele>
        <time>2013-06-18T09:33:39Z</time>
      </trkpt>
      <trkpt lat="44.33819" lon="2.49217">
        <ele>502</ele>
        <time>2013-06-18T09:33:42Z</time>
      </trkpt>
      <trkpt lat="44.33821" lon="2.49211">
        <ele>502</ele>
        <time>2013-06-18T09:33:45Z</time>
      </trkpt>
      <trkpt lat="44.33827" lon="2.49202">
        <ele>502</ele>
        <time>2013-06-18T09:33:52Z</time>
      </trkpt>
      <trkpt lat="44.3383" lon="2.49197">
        <ele>502</ele>
        <time>2013-06-18T09:33:55Z</time>
      </trkpt>
      <trkpt lat="44.33833" lon="2.49191">
        <ele>503</ele>
        <time>2013-06-18T09:33:59Z</time>
      </trkpt>
      <trkpt lat="44.33838" lon="2.49187">
        <ele>503</ele>
        <time>2013-06-18T09:34:03Z</time>
      </trkpt>
      <trkpt lat="44.33845" lon="2.49182">
        <ele>503</ele>
        <time>2013-06-18T09:34:08Z</time>
      </trkpt>
      <trkpt lat="44.33844" lon="2.49175">
        <ele>503</ele>
        <time>2013-06-18T09:34:12Z</time>
      </trkpt>
      <trkpt lat="44.33839" lon="2.49176">
        <ele>502</ele>
        <time>2013-06-18T09:34:16Z</time>
      </trkpt>
      <trkpt lat="44.33833" lon="2.49181">
        <ele>501</ele>
        <time>2013-06-18T09:34:21Z</time>
      </trkpt>
      <trkpt lat="44.33829" lon="2.49184">
        <ele>498</ele>
        <time>2013-06-18T09:34:25Z</time>
      </trkpt>
      <trkpt lat="44.33823" lon="2.49186">
        <ele>497</ele>
        <time>2013-06-18T09:34:29Z</time>
      </trkpt>
      <trkpt lat="44.33814" lon="2.4919">
        <ele>496</ele>
        <time>2013-06-18T09:34:36Z</time>
      </trkpt>
      <trkpt lat="44.33808" lon="2.49191">
        <ele>493</ele>
        <time>2013-06-18T09:34:42Z</time>
      </trkpt>
      <trkpt lat="44.33799" lon="2.49193">
        <ele>491</ele>
        <time>2013-06-18T09:34:51Z</time>
      </trkpt>
      <trkpt lat="44.33793" lon="2.49195">
        <ele>490</ele>
        <time>2013-06-18T09:34:55Z</time>
      </trkpt>
      <trkpt lat="44.33789" lon="2.49196">
        <ele>488</ele>
        <time>2013-06-18T09:34:58Z</time>
      </trkpt>
      <trkpt lat="44.3378" lon="2.49199">
        <ele>485</ele>
        <time>2013-06-18T09:35:04Z</time>
      </trkpt>
      <trkpt lat="44.33776" lon="2.49201">
        <ele>485</ele>
        <time>2013-06-18T09:35:07Z</time>
      </trkpt>
      <trkpt lat="44.33771" lon="2.49203">
        <ele>484</ele>
        <time>2013-06-18T09:35:10Z</time>
      </trkpt>
      <trkpt lat="44.33767" lon="2.49206">
        <ele>483</ele>
        <time>2013-06-18T09:35:13Z</time>
      </trkpt>
      <trkpt lat="44.33761" lon="2.49208">
        <ele>481</ele>
        <time>2013-06-18T09:35:16Z</time>
      </trkpt>
      <trkpt lat="44.33752" lon="2.49212">
        <ele>482</ele>
        <time>2013-06-18T09:35:22Z</time>
      </trkpt>
      <trkpt lat="44.33747" lon="2.49215">
        <ele>483</ele>
        <time>2013-06-18T09:35:26Z</time>
      </trkpt>
      <trkpt lat="44.33743" lon="2.49219">
        <ele>484</ele>
        <time>2013-06-18T09:35:29Z</time>
      </trkpt>
      <trkpt lat="44.33736" lon="2.49228">
        <ele>484</ele>
        <time>2013-06-18T09:35:35Z</time>
      </trkpt>
      <trkpt lat="44.33732" lon="2.49234">
        <ele>484</ele>
        <time>2013-06-18T09:35:40Z</time>
      </trkpt>
      <trkpt lat="44.33724" lon="2.4924">
        <ele>482</ele>
        <time>2013-06-18T09:35:48Z</time>
      </trkpt>
      <trkpt lat="44.33717" lon="2.49244">
        <ele>480</ele>
        <time>2013-06-18T09:35:54Z</time>
      </trkpt>
      <trkpt lat="44.3371" lon="2.49247">
        <ele>480</ele>
        <time>2013-06-18T09:36:00Z</time>
      </trkpt>
      <trkpt lat="44.33702" lon="2.49252">
        <ele>480</ele>
        <time>2013-06-18T09:36:08Z</time>
      </trkpt>
      <trkpt lat="44.33695" lon="2.49265">
        <ele>478</ele>
        <time>2013-06-18T09:36:22Z</time>
      </trkpt>
      <trkpt lat="44.33688" lon="2.49274">
        <ele>478</ele>
        <time>2013-06-18T09:36:27Z</time>
      </trkpt>
      <trkpt lat="44.33681" lon="2.49284">
        <ele>480</ele>
        <time>2013-06-18T09:36:33Z</time>
      </trkpt>
      <trkpt lat="44.33672" lon="2.49288">
        <ele>483</ele>
        <time>2013-06-18T09:36:37Z</time>
      </trkpt>
      <trkpt lat="44.33664" lon="2.49297">
        <ele>484</ele>
        <time>2013-06-18T09:36:41Z</time>
      </trkpt>
      <trkpt lat="44.33655" lon="2.49302">
        <ele>485</ele>
        <time>2013-06-18T09:36:44Z</time>
      </trkpt>
      <trkpt lat="44.33646" lon="2.49309">
        <ele>485</ele>
        <time>2013-06-18T09:36:47Z</time>
      </trkpt>
      <trkpt lat="44.33637" lon="2.49319">
        <ele>485</ele>
        <time>2013-06-18T09:36:51Z</time>
      </trkpt>
      <trkpt lat="44.33628" lon="2.49325">
        <ele>484</ele>
        <time>2013-06-18T09:36:54Z</time>
      </trkpt>
      <trkpt lat="44.33618" lon="2.4933">
        <ele>483</ele>
        <time>2013-06-18T09:36:57Z</time>
      </trkpt>
      <trkpt lat="44.33606" lon="2.49335">
        <ele>479</ele>
        <time>2013-06-18T09:37:02Z</time>
      </trkpt>
      <trkpt lat="44.33594" lon="2.4934">
        <ele>478</ele>
        <time>2013-06-18T09:37:06Z</time>
      </trkpt>
      <trkpt lat="44.33584" lon="2.49347">
        <ele>477</ele>
        <time>2013-06-18T09:37:09Z</time>
      </trkpt>
      <trkpt lat="44.33574" lon="2.49352">
        <ele>476</ele>
        <time>2013-06-18T09:37:12Z</time>
      </trkpt>
      <trkpt lat="44.33564" lon="2.49352">
        <ele>476</ele>
        <time>2013-06-18T09:37:15Z</time>
      </trkpt>
      <trkpt lat="44.33554" lon="2.49354">
        <ele>475</ele>
        <time>2013-06-18T09:37:18Z</time>
      </trkpt>
      <trkpt lat="44.33546" lon="2.49361">
        <ele>473</ele>
        <time>2013-06-18T09:37:21Z</time>
      </trkpt>
      <trkpt lat="44.33538" lon="2.49367">
        <ele>473</ele>
        <time>2013-06-18T09:37:24Z</time>
      </trkpt>
      <trkpt lat="44.33528" lon="2.49373">
        <ele>472</ele>
        <time>2013-06-18T09:37:28Z</time>
      </trkpt>
      <trkpt lat="44.33517" lon="2.49378">
        <ele>472</ele>
        <time>2013-06-18T09:37:32Z</time>
      </trkpt>
      <trkpt lat="44.33507" lon="2.49384">
        <ele>472</ele>
        <time>2013-06-18T09:37:35Z</time>
      </trkpt>
      <trkpt lat="44.33496" lon="2.49389">
        <ele>473</ele>
        <time>2013-06-18T09:37:39Z</time>
      </trkpt>
      <trkpt lat="44.33469" lon="2.49396">
        <ele>473</ele>
        <time>2013-06-18T09:37:46Z</time>
      </trkpt>
      <trkpt lat="44.33458" lon="2.49397">
        <ele>473</ele>
        <time>2013-06-18T09:37:49Z</time>
      </trkpt>
      <trkpt lat="44.33444" lon="2.49397">
        <ele>474</ele>
        <time>2013-06-18T09:37:53Z</time>
      </trkpt>
      <trkpt lat="44.33432" lon="2.49399">
        <ele>474</ele>
        <time>2013-06-18T09:37:56Z</time>
      </trkpt>
      <trkpt lat="44.33423" lon="2.49401">
        <ele>472</ele>
        <time>2013-06-18T09:37:59Z</time>
      </trkpt>
      <trkpt lat="44.33413" lon="2.49404">
        <ele>471</ele>
        <time>2013-06-18T09:38:02Z</time>
      </trkpt>
      <trkpt lat="44.33401" lon="2.49406">
        <ele>470</ele>
        <time>2013-06-18T09:38:06Z</time>
      </trkpt>
      <trkpt lat="44.3339" lon="2.49409">
        <ele>470</ele>
        <time>2013-06-18T09:38:10Z</time>
      </trkpt>
      <trkpt lat="44.33381" lon="2.49414">
        <ele>470</ele>
        <time>2013-06-18T09:38:14Z</time>
      </trkpt>
      <trkpt lat="44.3337" lon="2.49421">
        <ele>469</ele>
        <time>2013-06-18T09:38:18Z</time>
      </trkpt>
      <trkpt lat="44.3336" lon="2.49428">
        <ele>467</ele>
        <time>2013-06-18T09:38:22Z</time>
      </trkpt>
      <trkpt lat="44.33353" lon="2.49442">
        <ele>466</ele>
        <time>2013-06-18T09:38:26Z</time>
      </trkpt>
      <trkpt lat="44.33341" lon="2.49449">
        <ele>466</ele>
        <time>2013-06-18T09:38:29Z</time>
      </trkpt>
      <trkpt lat="44.33328" lon="2.49452">
        <ele>465</ele>
        <time>2013-06-18T09:38:32Z</time>
      </trkpt>
      <trkpt lat="44.33319" lon="2.49453">
        <ele>465</ele>
        <time>2013-06-18T09:38:34Z</time>
      </trkpt>
      <trkpt lat="44.3331" lon="2.49453">
        <ele>465</ele>
        <time>2013-06-18T09:38:37Z</time>
      </trkpt>
      <trkpt lat="44.333" lon="2.49455">
        <ele>466</ele>
        <time>2013-06-18T09:38:40Z</time>
      </trkpt>
      <trkpt lat="44.33286" lon="2.49456">
        <ele>467</ele>
        <time>2013-06-18T09:38:43Z</time>
      </trkpt>
      <trkpt lat="44.33277" lon="2.49455">
        <ele>468</ele>
        <time>2013-06-18T09:38:45Z</time>
      </trkpt>
      <trkpt lat="44.33268" lon="2.49455">
        <ele>468</ele>
        <time>2013-06-18T09:38:47Z</time>
      </trkpt>
      <trkpt lat="44.33258" lon="2.49453">
        <ele>469</ele>
        <time>2013-06-18T09:38:50Z</time>
      </trkpt>
      <trkpt lat="44.33244" lon="2.49454">
        <ele>471</ele>
        <time>2013-06-18T09:38:57Z</time>
      </trkpt>
      <trkpt lat="44.33235" lon="2.4945">
        <ele>472</ele>
        <time>2013-06-18T09:39:05Z</time>
      </trkpt>
      <trkpt lat="44.33225" lon="2.49443">
        <ele>477</ele>
        <time>2013-06-18T09:39:12Z</time>
      </trkpt>
      <trkpt lat="44.33217" lon="2.49434">
        <ele>478</ele>
        <time>2013-06-18T09:39:15Z</time>
      </trkpt>
      <trkpt lat="44.33209" lon="2.49428">
        <ele>480</ele>
        <time>2013-06-18T09:39:19Z</time>
      </trkpt>
      <trkpt lat="44.33201" lon="2.49418">
        <ele>480</ele>
        <time>2013-06-18T09:39:24Z</time>
      </trkpt>
      <trkpt lat="44.33195" lon="2.49406">
        <ele>481</ele>
        <time>2013-06-18T09:39:30Z</time>
      </trkpt>
      <trkpt lat="44.33188" lon="2.49396">
        <ele>480</ele>
        <time>2013-06-18T09:39:36Z</time>
      </trkpt>
      <trkpt lat="44.33182" lon="2.49386">
        <ele>479</ele>
        <time>2013-06-18T09:39:42Z</time>
      </trkpt>
      <trkpt lat="44.33176" lon="2.49376">
        <ele>481</ele>
        <time>2013-06-18T09:39:48Z</time>
      </trkpt>
      <trkpt lat="44.33169" lon="2.49368">
        <ele>481</ele>
        <time>2013-06-18T09:39:58Z</time>
      </trkpt>
      <trkpt lat="44.33166" lon="2.49355">
        <ele>478</ele>
        <time>2013-06-18T09:40:10Z</time>
      </trkpt>
      <trkpt lat="44.3316" lon="2.49349">
        <ele>476</ele>
        <time>2013-06-18T09:40:27Z</time>
      </trkpt>
      <trkpt lat="44.33154" lon="2.49345">
        <ele>477</ele>
        <time>2013-06-18T09:40:42Z</time>
      </trkpt>
      <trkpt lat="44.33147" lon="2.49348">
        <ele>475</ele>
        <time>2013-06-18T09:41:05Z</time>
      </trkpt>
      <trkpt lat="44.33156" lon="2.49349">
        <ele>482</ele>
        <time>2013-06-18T09:42:59Z</time>
      </trkpt>
      <trkpt lat="44.33149" lon="2.49341">
        <ele>479</ele>
        <time>2013-06-18T09:45:07Z</time>
      </trkpt>
      <trkpt lat="44.33141" lon="2.49337">
        <ele>475</ele>
        <time>2013-06-18T09:46:42Z</time>
      </trkpt>
      <trkpt lat="44.3314" lon="2.49344">
        <ele>473</ele>
        <time>2013-06-18T09:48:20Z</time>
      </trkpt>
      <trkpt lat="44.33135" lon="2.4935">
        <ele>473</ele>
        <time>2013-06-18T09:49:15Z</time>
      </trkpt>
      <trkpt lat="44.33129" lon="2.49353">
        <ele>473</ele>
        <time>2013-06-18T09:49:28Z</time>
      </trkpt>
      <trkpt lat="44.33121" lon="2.49357">
        <ele>473</ele>
        <time>2013-06-18T09:49:34Z</time>
      </trkpt>
      <trkpt lat="44.33111" lon="2.49356">
        <ele>475</ele>
        <time>2013-06-18T09:49:42Z</time>
      </trkpt>
      <trkpt lat="44.33102" lon="2.49345">
        <ele>477</ele>
        <time>2013-06-18T09:49:52Z</time>
      </trkpt>
      <trkpt lat="44.33095" lon="2.49338">
        <ele>476</ele>
        <time>2013-06-18T09:49:57Z</time>
      </trkpt>
      <trkpt lat="44.33087" lon="2.49331">
        <ele>475</ele>
        <time>2013-06-18T09:50:04Z</time>
      </trkpt>
      <trkpt lat="44.33079" lon="2.49324">
        <ele>474</ele>
        <time>2013-06-18T09:50:11Z</time>
      </trkpt>
      <trkpt lat="44.33072" lon="2.49317">
        <ele>477</ele>
        <time>2013-06-18T09:50:18Z</time>
      </trkpt>
      <trkpt lat="44.33065" lon="2.49308">
        <ele>479</ele>
        <time>2013-06-18T09:50:33Z</time>
      </trkpt>
      <trkpt lat="44.33057" lon="2.493">
        <ele>479</ele>
        <time>2013-06-18T09:50:39Z</time>
      </trkpt>
      <trkpt lat="44.33051" lon="2.49291">
        <ele>479</ele>
        <time>2013-06-18T09:50:44Z</time>
      </trkpt>
      <trkpt lat="44.33043" lon="2.49281">
        <ele>480</ele>
        <time>2013-06-18T09:50:50Z</time>
      </trkpt>
      <trkpt lat="44.3303" lon="2.49274">
        <ele>485</ele>
        <time>2013-06-18T09:51:06Z</time>
      </trkpt>
      <trkpt lat="44.3302" lon="2.49271">
        <ele>486</ele>
        <time>2013-06-18T09:51:11Z</time>
      </trkpt>
      <trkpt lat="44.3302" lon="2.49282">
        <ele>494</ele>
        <time>2013-06-18T09:51:31Z</time>
      </trkpt>
      <trkpt lat="44.33036" lon="2.49332">
        <ele>524</ele>
        <time>2013-06-18T09:52:05Z</time>
      </trkpt>
      <trkpt lat="44.33042" lon="2.49344">
        <ele>527</ele>
        <time>2013-06-18T09:52:12Z</time>
      </trkpt>
      <trkpt lat="44.33046" lon="2.49356">
        <ele>531</ele>
        <time>2013-06-18T09:52:17Z</time>
      </trkpt>
      <trkpt lat="44.3305" lon="2.49368">
        <ele>533</ele>
        <time>2013-06-18T09:52:24Z</time>
      </trkpt>
      <trkpt lat="44.33052" lon="2.49381">
        <ele>533</ele>
        <time>2013-06-18T09:52:29Z</time>
      </trkpt>
      <trkpt lat="44.3305" lon="2.49395">
        <ele>533</ele>
        <time>2013-06-18T09:52:33Z</time>
      </trkpt>
      <trkpt lat="44.33049" lon="2.49408">
        <ele>530</ele>
        <time>2013-06-18T09:52:39Z</time>
      </trkpt>
      <trkpt lat="44.33044" lon="2.4942">
        <ele>528</ele>
        <time>2013-06-18T09:52:50Z</time>
      </trkpt>
      <trkpt lat="44.3304" lon="2.49431">
        <ele>527</ele>
        <time>2013-06-18T09:52:57Z</time>
      </trkpt>
      <trkpt lat="44.33037" lon="2.49445">
        <ele>526</ele>
        <time>2013-06-18T09:53:07Z</time>
      </trkpt>
      <trkpt lat="44.3303" lon="2.49459">
        <ele>527</ele>
        <time>2013-06-18T09:53:14Z</time>
      </trkpt>
      <trkpt lat="44.33023" lon="2.49468">
        <ele>530</ele>
        <time>2013-06-18T09:53:21Z</time>
      </trkpt>
      <trkpt lat="44.33016" lon="2.49476">
        <ele>533</ele>
        <time>2013-06-18T09:53:29Z</time>
      </trkpt>
      <trkpt lat="44.33007" lon="2.49487">
        <ele>536</ele>
        <time>2013-06-18T09:53:37Z</time>
      </trkpt>
      <trkpt lat="44.33" lon="2.49493">
        <ele>536</ele>
        <time>2013-06-18T09:53:43Z</time>
      </trkpt>
      <trkpt lat="44.32993" lon="2.49502">
        <ele>537</ele>
        <time>2013-06-18T09:53:48Z</time>
      </trkpt>
      <trkpt lat="44.32987" lon="2.49514">
        <ele>539</ele>
        <time>2013-06-18T09:53:55Z</time>
      </trkpt>
      <trkpt lat="44.32979" lon="2.49521">
        <ele>537</ele>
        <time>2013-06-18T09:53:59Z</time>
      </trkpt>
      <trkpt lat="44.3297" lon="2.49528">
        <ele>534</ele>
        <time>2013-06-18T09:54:03Z</time>
      </trkpt>
      <trkpt lat="44.3296" lon="2.49532">
        <ele>530</ele>
        <time>2013-06-18T09:54:11Z</time>
      </trkpt>
      <trkpt lat="44.32949" lon="2.49532">
        <ele>531</ele>
        <time>2013-06-18T09:54:17Z</time>
      </trkpt>
      <trkpt lat="44.3294" lon="2.49536">
        <ele>530</ele>
        <time>2013-06-18T09:54:24Z</time>
      </trkpt>
      <trkpt lat="44.3293" lon="2.49542">
        <ele>530</ele>
        <time>2013-06-18T09:54:33Z</time>
      </trkpt>
      <trkpt lat="44.32921" lon="2.49545">
        <ele>531</ele>
        <time>2013-06-18T09:54:39Z</time>
      </trkpt>
      <trkpt lat="44.32912" lon="2.49546">
        <ele>536</ele>
        <time>2013-06-18T09:54:46Z</time>
      </trkpt>
      <trkpt lat="44.32884" lon="2.49558">
        <ele>552</ele>
        <time>2013-06-18T09:55:17Z</time>
      </trkpt>
      <trkpt lat="44.32873" lon="2.49569">
        <ele>556</ele>
        <time>2013-06-18T09:55:31Z</time>
      </trkpt>
      <trkpt lat="44.32865" lon="2.49577">
        <ele>558</ele>
        <time>2013-06-18T09:55:45Z</time>
      </trkpt>
      <trkpt lat="44.32858" lon="2.49586">
        <ele>559</ele>
        <time>2013-06-18T09:55:55Z</time>
      </trkpt>
      <trkpt lat="44.3285" lon="2.49594">
        <ele>561</ele>
        <time>2013-06-18T09:56:06Z</time>
      </trkpt>
      <trkpt lat="44.32841" lon="2.49601">
        <ele>564</ele>
        <time>2013-06-18T09:56:11Z</time>
      </trkpt>
      <trkpt lat="44.32833" lon="2.49604">
        <ele>566</ele>
        <time>2013-06-18T09:56:18Z</time>
      </trkpt>
      <trkpt lat="44.32822" lon="2.49611">
        <ele>566</ele>
        <time>2013-06-18T09:56:32Z</time>
      </trkpt>
      <trkpt lat="44.32814" lon="2.49617">
        <ele>566</ele>
        <time>2013-06-18T09:56:38Z</time>
      </trkpt>
      <trkpt lat="44.32804" lon="2.49619">
        <ele>565</ele>
        <time>2013-06-18T09:56:42Z</time>
      </trkpt>
      <trkpt lat="44.32796" lon="2.49626">
        <ele>565</ele>
        <time>2013-06-18T09:56:51Z</time>
      </trkpt>
      <trkpt lat="44.32788" lon="2.49634">
        <ele>569</ele>
        <time>2013-06-18T09:57:00Z</time>
      </trkpt>
      <trkpt lat="44.32779" lon="2.49637">
        <ele>570</ele>
        <time>2013-06-18T09:57:07Z</time>
      </trkpt>
      <trkpt lat="44.3277" lon="2.49635">
        <ele>572</ele>
        <time>2013-06-18T09:57:18Z</time>
      </trkpt>
      <trkpt lat="44.32768" lon="2.49624">
        <ele>571</ele>
        <time>2013-06-18T09:58:48Z</time>
      </trkpt>
      <trkpt lat="44.32775" lon="2.49615">
        <ele>572</ele>
        <time>2013-06-18T09:58:55Z</time>
      </trkpt>
      <trkpt lat="44.32782" lon="2.49606">
        <ele>574</ele>
        <time>2013-06-18T09:59:03Z</time>
      </trkpt>
      <trkpt lat="44.32787" lon="2.49597">
        <ele>577</ele>
        <time>2013-06-18T09:59:11Z</time>
      </trkpt>
      <trkpt lat="44.32794" lon="2.49587">
        <ele>579</ele>
        <time>2013-06-18T09:59:17Z</time>
      </trkpt>
      <trkpt lat="44.328" lon="2.49577">
        <ele>583</ele>
        <time>2013-06-18T09:59:28Z</time>
      </trkpt>
      <trkpt lat="44.32807" lon="2.49567">
        <ele>587</ele>
        <time>2013-06-18T09:59:35Z</time>
      </trkpt>
      <trkpt lat="44.32812" lon="2.49556">
        <ele>592</ele>
        <time>2013-06-18T09:59:46Z</time>
      </trkpt>
      <trkpt lat="44.32817" lon="2.49545">
        <ele>595</ele>
        <time>2013-06-18T09:59:54Z</time>
      </trkpt>
      <trkpt lat="44.32821" lon="2.49532">
        <ele>598</ele>
        <time>2013-06-18T10:00:02Z</time>
      </trkpt>
      <trkpt lat="44.32824" lon="2.49519">
        <ele>600</ele>
        <time>2013-06-18T10:00:10Z</time>
      </trkpt>
      <trkpt lat="44.3283" lon="2.49505">
        <ele>602</ele>
        <time>2013-06-18T10:00:19Z</time>
      </trkpt>
      <trkpt lat="44.32835" lon="2.49494">
        <ele>605</ele>
        <time>2013-06-18T10:00:26Z</time>
      </trkpt>
      <trkpt lat="44.32842" lon="2.49484">
        <ele>607</ele>
        <time>2013-06-18T10:00:32Z</time>
      </trkpt>
      <trkpt lat="44.32849" lon="2.49475">
        <ele>609</ele>
        <time>2013-06-18T10:00:40Z</time>
      </trkpt>
      <trkpt lat="44.32855" lon="2.49466">
        <ele>611</ele>
        <time>2013-06-18T10:00:45Z</time>
      </trkpt>
      <trkpt lat="44.32859" lon="2.49455">
        <ele>615</ele>
        <time>2013-06-18T10:00:53Z</time>
      </trkpt>
      <trkpt lat="44.32864" lon="2.49443">
        <ele>614</ele>
        <time>2013-06-18T10:01:00Z</time>
      </trkpt>
      <trkpt lat="44.32867" lon="2.49428">
        <ele>613</ele>
        <time>2013-06-18T10:01:10Z</time>
      </trkpt>
      <trkpt lat="44.32869" lon="2.49414">
        <ele>613</ele>
        <time>2013-06-18T10:01:18Z</time>
      </trkpt>
      <trkpt lat="44.32869" lon="2.494">
        <ele>616</ele>
        <time>2013-06-18T10:01:26Z</time>
      </trkpt>
      <trkpt lat="44.32869" lon="2.49387">
        <ele>618</ele>
        <time>2013-06-18T10:01:34Z</time>
      </trkpt>
      <trkpt lat="44.32869" lon="2.49374">
        <ele>620</ele>
        <time>2013-06-18T10:01:41Z</time>
      </trkpt>
      <trkpt lat="44.32868" lon="2.49366">
        <ele>623</ele>
        <time>2013-06-18T10:01:45Z</time>
      </trkpt>
      <trkpt lat="44.32865" lon="2.4936">
        <ele>624</ele>
        <time>2013-06-18T10:01:49Z</time>
      </trkpt>
      <trkpt lat="44.32861" lon="2.4935">
        <ele>624</ele>
        <time>2013-06-18T10:01:59Z</time>
      </trkpt>
      <trkpt lat="44.32858" lon="2.49338">
        <ele>625</ele>
        <time>2013-06-18T10:02:25Z</time>
      </trkpt>
      <trkpt lat="44.32858" lon="2.49328">
        <ele>626</ele>
        <time>2013-06-18T10:02:29Z</time>
      </trkpt>
      <trkpt lat="44.32858" lon="2.49321">
        <ele>626</ele>
        <time>2013-06-18T10:02:32Z</time>
      </trkpt>
      <trkpt lat="44.32859" lon="2.49309">
        <ele>625</ele>
        <time>2013-06-18T10:02:39Z</time>
      </trkpt>
      <trkpt lat="44.32858" lon="2.493">
        <ele>624</ele>
        <time>2013-06-18T10:02:44Z</time>
      </trkpt>
      <trkpt lat="44.32858" lon="2.49293">
        <ele>622</ele>
        <time>2013-06-18T10:02:49Z</time>
      </trkpt>
      <trkpt lat="44.32856" lon="2.49285">
        <ele>621</ele>
        <time>2013-06-18T10:02:53Z</time>
      </trkpt>
      <trkpt lat="44.32853" lon="2.49278">
        <ele>618</ele>
        <time>2013-06-18T10:02:56Z</time>
      </trkpt>
      <trkpt lat="44.32849" lon="2.49267">
        <ele>615</ele>
        <time>2013-06-18T10:03:03Z</time>
      </trkpt>
      <trkpt lat="44.32845" lon="2.49261">
        <ele>613</ele>
        <time>2013-06-18T10:03:09Z</time>
      </trkpt>
      <trkpt lat="44.32841" lon="2.49256">
        <ele>612</ele>
        <time>2013-06-18T10:03:14Z</time>
      </trkpt>
      <trkpt lat="44.32837" lon="2.49253">
        <ele>611</ele>
        <time>2013-06-18T10:03:20Z</time>
      </trkpt>
      <trkpt lat="44.32832" lon="2.49249">
        <ele>610</ele>
        <time>2013-06-18T10:03:26Z</time>
      </trkpt>
      <trkpt lat="44.32823" lon="2.49242">
        <ele>609</ele>
        <time>2013-06-18T10:03:35Z</time>
      </trkpt>
      <trkpt lat="44.32819" lon="2.4924">
        <ele>608</ele>
        <time>2013-06-18T10:03:40Z</time>
      </trkpt>
      <trkpt lat="44.32821" lon="2.49225">
        <ele>606</ele>
        <time>2013-06-18T10:03:55Z</time>
      </trkpt>
      <trkpt lat="44.32825" lon="2.49214">
        <ele>606</ele>
        <time>2013-06-18T10:04:01Z</time>
      </trkpt>
      <trkpt lat="44.32832" lon="2.49205">
        <ele>606</ele>
        <time>2013-06-18T10:04:13Z</time>
      </trkpt>
      <trkpt lat="44.32836" lon="2.49193">
        <ele>603</ele>
        <time>2013-06-18T10:04:22Z</time>
      </trkpt>
      <trkpt lat="44.32842" lon="2.49182">
        <ele>601</ele>
        <time>2013-06-18T10:04:30Z</time>
      </trkpt>
      <trkpt lat="44.32853" lon="2.49151">
        <ele>587</ele>
        <time>2013-06-18T10:04:55Z</time>
      </trkpt>
      <trkpt lat="44.32858" lon="2.4914">
        <ele>590</ele>
        <time>2013-06-18T10:05:04Z</time>
      </trkpt>
      <trkpt lat="44.32863" lon="2.49128">
        <ele>591</ele>
        <time>2013-06-18T10:05:12Z</time>
      </trkpt>
      <trkpt lat="44.32867" lon="2.49117">
        <ele>592</ele>
        <time>2013-06-18T10:05:16Z</time>
      </trkpt>
      <trkpt lat="44.3287" lon="2.49104">
        <ele>591</ele>
        <time>2013-06-18T10:05:22Z</time>
      </trkpt>
      <trkpt lat="44.3287" lon="2.49089">
        <ele>591</ele>
        <time>2013-06-18T10:05:30Z</time>
      </trkpt>
      <trkpt lat="44.32869" lon="2.49074">
        <ele>593</ele>
        <time>2013-06-18T10:05:37Z</time>
      </trkpt>
      <trkpt lat="44.32869" lon="2.4906">
        <ele>593</ele>
        <time>2013-06-18T10:05:46Z</time>
      </trkpt>
      <trkpt lat="44.32868" lon="2.49047">
        <ele>594</ele>
        <time>2013-06-18T10:05:56Z</time>
      </trkpt>
      <trkpt lat="44.32869" lon="2.49034">
        <ele>597</ele>
        <time>2013-06-18T10:06:06Z</time>
      </trkpt>
      <trkpt lat="44.32868" lon="2.49027">
        <ele>602</ele>
        <time>2013-06-18T10:06:21Z</time>
      </trkpt>
      <trkpt lat="44.32872" lon="2.49013">
        <ele>601</ele>
        <time>2013-06-18T10:06:28Z</time>
      </trkpt>
      <trkpt lat="44.32872" lon="2.49006">
        <ele>600</ele>
        <time>2013-06-18T10:06:49Z</time>
      </trkpt>
      <trkpt lat="44.32875" lon="2.48998">
        <ele>587</ele>
        <time>2013-06-18T10:08:20Z</time>
      </trkpt>
      <trkpt lat="44.32875" lon="2.48991">
        <ele>595</ele>
        <time>2013-06-18T10:12:31Z</time>
      </trkpt>
      <trkpt lat="44.32868" lon="2.48991">
        <ele>590</ele>
        <time>2013-06-18T10:15:24Z</time>
      </trkpt>
      <trkpt lat="44.32871" lon="2.48978">
        <ele>590</ele>
        <time>2013-06-18T10:15:42Z</time>
      </trkpt>
      <trkpt lat="44.32872" lon="2.48972">
        <ele>593</ele>
        <time>2013-06-18T10:15:54Z</time>
      </trkpt>
      <trkpt lat="44.32877" lon="2.48959">
        <ele>592</ele>
        <time>2013-06-18T10:16:03Z</time>
      </trkpt>
      <trkpt lat="44.32883" lon="2.48947">
        <ele>586</ele>
        <time>2013-06-18T10:16:12Z</time>
      </trkpt>
      <trkpt lat="44.32887" lon="2.4893">
        <ele>584</ele>
        <time>2013-06-18T10:16:24Z</time>
      </trkpt>
      <trkpt lat="44.32891" lon="2.48913">
        <ele>585</ele>
        <time>2013-06-18T10:16:37Z</time>
      </trkpt>
      <trkpt lat="44.32899" lon="2.48903">
        <ele>585</ele>
        <time>2013-06-18T10:16:43Z</time>
      </trkpt>
      <trkpt lat="44.32905" lon="2.4889">
        <ele>586</ele>
        <time>2013-06-18T10:16:52Z</time>
      </trkpt>
      <trkpt lat="44.32909" lon="2.48878">
        <ele>585</ele>
        <time>2013-06-18T10:17:01Z</time>
      </trkpt>
      <trkpt lat="44.32911" lon="2.48865">
        <ele>583</ele>
        <time>2013-06-18T10:17:11Z</time>
      </trkpt>
      <trkpt lat="44.32915" lon="2.48853">
        <ele>582</ele>
        <time>2013-06-18T10:17:19Z</time>
      </trkpt>
      <trkpt lat="44.32917" lon="2.4884">
        <ele>583</ele>
        <time>2013-06-18T10:17:26Z</time>
      </trkpt>
      <trkpt lat="44.32921" lon="2.48824">
        <ele>585</ele>
        <time>2013-06-18T10:17:36Z</time>
      </trkpt>
      <trkpt lat="44.32927" lon="2.48814">
        <ele>588</ele>
        <time>2013-06-18T10:17:41Z</time>
      </trkpt>
      <trkpt lat="44.32932" lon="2.48811">
        <ele>586</ele>
        <time>2013-06-18T10:18:00Z</time>
      </trkpt>
      <trkpt lat="44.32935" lon="2.48795">
        <ele>586</ele>
        <time>2013-06-18T10:18:14Z</time>
      </trkpt>
      <trkpt lat="44.32941" lon="2.48778">
        <ele>588</ele>
        <time>2013-06-18T10:18:28Z</time>
      </trkpt>
      <trkpt lat="44.32941" lon="2.48762">
        <ele>589</ele>
        <time>2013-06-18T10:18:38Z</time>
      </trkpt>
      <trkpt lat="44.32939" lon="2.48745">
        <ele>590</ele>
        <time>2013-06-18T10:18:53Z</time>
      </trkpt>
      <trkpt lat="44.32938" lon="2.48737">
        <ele>584</ele>
        <time>2013-06-18T10:19:43Z</time>
      </trkpt>
      <trkpt lat="44.32948" lon="2.48731">
        <ele>582</ele>
        <time>2013-06-18T10:20:29Z</time>
      </trkpt>
      <trkpt lat="44.32953" lon="2.48721">
        <ele>581</ele>
        <time>2013-06-18T10:20:46Z</time>
      </trkpt>
      <trkpt lat="44.32958" lon="2.48709">
        <ele>581</ele>
        <time>2013-06-18T10:20:52Z</time>
      </trkpt>
      <trkpt lat="44.32961" lon="2.48694">
        <ele>584</ele>
        <time>2013-06-18T10:21:02Z</time>
      </trkpt>
      <trkpt lat="44.32963" lon="2.48682">
        <ele>583</ele>
        <time>2013-06-18T10:21:11Z</time>
      </trkpt>
      <trkpt lat="44.32967" lon="2.48666">
        <ele>582</ele>
        <time>2013-06-18T10:21:23Z</time>
      </trkpt>
      <trkpt lat="44.32971" lon="2.48653">
        <ele>582</ele>
        <time>2013-06-18T10:21:32Z</time>
      </trkpt>
      <trkpt lat="44.32976" lon="2.48641">
        <ele>583</ele>
        <time>2013-06-18T10:21:40Z</time>
      </trkpt>
      <trkpt lat="44.32972" lon="2.4863">
        <ele>583</ele>
        <time>2013-06-18T10:21:45Z</time>
      </trkpt>
      <trkpt lat="44.32979" lon="2.48617">
        <ele>583</ele>
        <time>2013-06-18T10:21:49Z</time>
      </trkpt>
      <trkpt lat="44.32983" lon="2.48605">
        <ele>583</ele>
        <time>2013-06-18T10:21:53Z</time>
      </trkpt>
      <trkpt lat="44.32988" lon="2.48595">
        <ele>585</ele>
        <time>2013-06-18T10:22:03Z</time>
      </trkpt>
      <trkpt lat="44.32994" lon="2.48583">
        <ele>585</ele>
        <time>2013-06-18T10:22:10Z</time>
      </trkpt>
      <trkpt lat="44.32996" lon="2.48571">
        <ele>584</ele>
        <time>2013-06-18T10:22:16Z</time>
      </trkpt>
      <trkpt lat="44.33002" lon="2.48558">
        <ele>582</ele>
        <time>2013-06-18T10:22:27Z</time>
      </trkpt>
      <trkpt lat="44.33004" lon="2.48547">
        <ele>582</ele>
        <time>2013-06-18T10:22:47Z</time>
      </trkpt>
      <trkpt lat="44.33006" lon="2.48532">
        <ele>580</ele>
        <time>2013-06-18T10:22:57Z</time>
      </trkpt>
      <trkpt lat="44.33011" lon="2.4852">
        <ele>579</ele>
        <time>2013-06-18T10:23:05Z</time>
      </trkpt>
      <trkpt lat="44.33014" lon="2.48508">
        <ele>578</ele>
        <time>2013-06-18T10:23:11Z</time>
      </trkpt>
      <trkpt lat="44.33014" lon="2.48488">
        <ele>577</ele>
        <time>2013-06-18T10:23:28Z</time>
      </trkpt>
      <trkpt lat="44.33017" lon="2.48469">
        <ele>579</ele>
        <time>2013-06-18T10:23:38Z</time>
      </trkpt>
      <trkpt lat="44.33022" lon="2.48449">
        <ele>578</ele>
        <time>2013-06-18T10:23:47Z</time>
      </trkpt>
      <trkpt lat="44.33026" lon="2.48434">
        <ele>575</ele>
        <time>2013-06-18T10:23:53Z</time>
      </trkpt>
      <trkpt lat="44.33029" lon="2.48422">
        <ele>572</ele>
        <time>2013-06-18T10:23:59Z</time>
      </trkpt>
      <trkpt lat="44.33029" lon="2.48402">
        <ele>572</ele>
        <time>2013-06-18T10:24:07Z</time>
      </trkpt>
      <trkpt lat="44.33028" lon="2.48387">
        <ele>572</ele>
        <time>2013-06-18T10:24:15Z</time>
      </trkpt>
      <trkpt lat="44.33027" lon="2.48369">
        <ele>569</ele>
        <time>2013-06-18T10:24:26Z</time>
      </trkpt>
      <trkpt lat="44.33028" lon="2.48352">
        <ele>567</ele>
        <time>2013-06-18T10:24:34Z</time>
      </trkpt>
      <trkpt lat="44.33032" lon="2.48333">
        <ele>565</ele>
        <time>2013-06-18T10:24:46Z</time>
      </trkpt>
      <trkpt lat="44.33038" lon="2.4832">
        <ele>564</ele>
        <time>2013-06-18T10:24:51Z</time>
      </trkpt>
      <trkpt lat="44.3304" lon="2.48306">
        <ele>563</ele>
        <time>2013-06-18T10:24:57Z</time>
      </trkpt>
      <trkpt lat="44.33045" lon="2.48293">
        <ele>562</ele>
        <time>2013-06-18T10:25:02Z</time>
      </trkpt>
      <trkpt lat="44.33048" lon="2.48281">
        <ele>562</ele>
        <time>2013-06-18T10:25:08Z</time>
      </trkpt>
      <trkpt lat="44.33051" lon="2.48267">
        <ele>561</ele>
        <time>2013-06-18T10:25:14Z</time>
      </trkpt>
      <trkpt lat="44.33053" lon="2.48251">
        <ele>560</ele>
        <time>2013-06-18T10:25:30Z</time>
      </trkpt>
      <trkpt lat="44.33057" lon="2.48238">
        <ele>557</ele>
        <time>2013-06-18T10:25:34Z</time>
      </trkpt>
      <trkpt lat="44.3306" lon="2.48227">
        <ele>555</ele>
        <time>2013-06-18T10:25:39Z</time>
      </trkpt>
      <trkpt lat="44.33066" lon="2.48215">
        <ele>554</ele>
        <time>2013-06-18T10:25:46Z</time>
      </trkpt>
      <trkpt lat="44.33075" lon="2.48208">
        <ele>557</ele>
        <time>2013-06-18T10:25:52Z</time>
      </trkpt>
      <trkpt lat="44.33083" lon="2.48199">
        <ele>559</ele>
        <time>2013-06-18T10:25:58Z</time>
      </trkpt>
      <trkpt lat="44.33088" lon="2.48183">
        <ele>562</ele>
        <time>2013-06-18T10:26:10Z</time>
      </trkpt>
      <trkpt lat="44.33092" lon="2.4817">
        <ele>564</ele>
        <time>2013-06-18T10:26:20Z</time>
      </trkpt>
      <trkpt lat="44.33098" lon="2.48153">
        <ele>565</ele>
        <time>2013-06-18T10:26:24Z</time>
      </trkpt>
      <trkpt lat="44.33101" lon="2.48139">
        <ele>563</ele>
        <time>2013-06-18T10:26:30Z</time>
      </trkpt>
      <trkpt lat="44.33102" lon="2.48125">
        <ele>562</ele>
        <time>2013-06-18T10:26:35Z</time>
      </trkpt>
      <trkpt lat="44.33104" lon="2.48112">
        <ele>562</ele>
        <time>2013-06-18T10:26:41Z</time>
      </trkpt>
      <trkpt lat="44.33108" lon="2.48099">
        <ele>563</ele>
        <time>2013-06-18T10:26:48Z</time>
      </trkpt>
      <trkpt lat="44.33116" lon="2.48087">
        <ele>562</ele>
        <time>2013-06-18T10:26:56Z</time>
      </trkpt>
      <trkpt lat="44.33123" lon="2.48072">
        <ele>562</ele>
        <time>2013-06-18T10:27:05Z</time>
      </trkpt>
      <trkpt lat="44.33131" lon="2.48058">
        <ele>563</ele>
        <time>2013-06-18T10:27:15Z</time>
      </trkpt>
      <trkpt lat="44.33136" lon="2.48044">
        <ele>562</ele>
        <time>2013-06-18T10:27:24Z</time>
      </trkpt>
      <trkpt lat="44.33138" lon="2.48029">
        <ele>561</ele>
        <time>2013-06-18T10:27:32Z</time>
      </trkpt>
      <trkpt lat="44.33142" lon="2.48016">
        <ele>560</ele>
        <time>2013-06-18T10:27:38Z</time>
      </trkpt>
      <trkpt lat="44.33147" lon="2.48004">
        <ele>558</ele>
        <time>2013-06-18T10:27:46Z</time>
      </trkpt>
      <trkpt lat="44.33155" lon="2.4799">
        <ele>557</ele>
        <time>2013-06-18T10:27:58Z</time>
      </trkpt>
      <trkpt lat="44.33161" lon="2.4798">
        <ele>556</ele>
        <time>2013-06-18T10:28:11Z</time>
      </trkpt>
      <trkpt lat="44.33172" lon="2.47984">
        <ele>556</ele>
        <time>2013-06-18T10:28:23Z</time>
      </trkpt>
      <trkpt lat="44.33165" lon="2.48002">
        <ele>554</ele>
        <time>2013-06-18T10:28:36Z</time>
      </trkpt>
      <trkpt lat="44.33159" lon="2.48011">
        <ele>552</ele>
        <time>2013-06-18T10:28:42Z</time>
      </trkpt>
      <trkpt lat="44.33169" lon="2.48017">
        <ele>541</ele>
        <time>2013-06-18T10:28:57Z</time>
      </trkpt>
      <trkpt lat="44.33178" lon="2.4801">
        <ele>539</ele>
        <time>2013-06-18T10:29:05Z</time>
      </trkpt>
      <trkpt lat="44.33183" lon="2.47998">
        <ele>539</ele>
        <time>2013-06-18T10:29:14Z</time>
      </trkpt>
      <trkpt lat="44.3319" lon="2.47988">
        <ele>540</ele>
        <time>2013-06-18T10:29:20Z</time>
      </trkpt>
      <trkpt lat="44.33196" lon="2.47972">
        <ele>539</ele>
        <time>2013-06-18T10:29:30Z</time>
      </trkpt>
      <trkpt lat="44.33193" lon="2.47958">
        <ele>537</ele>
        <time>2013-06-18T10:29:39Z</time>
      </trkpt>
      <trkpt lat="44.33186" lon="2.47945">
        <ele>535</ele>
        <time>2013-06-18T10:29:46Z</time>
      </trkpt>
      <trkpt lat="44.3318" lon="2.4794">
        <ele>535</ele>
        <time>2013-06-18T10:30:02Z</time>
      </trkpt>
      <trkpt lat="44.33176" lon="2.47926">
        <ele>534</ele>
        <time>2013-06-18T10:30:11Z</time>
      </trkpt>
      <trkpt lat="44.3317" lon="2.47915">
        <ele>534</ele>
        <time>2013-06-18T10:30:17Z</time>
      </trkpt>
      <trkpt lat="44.33163" lon="2.47905">
        <ele>533</ele>
        <time>2013-06-18T10:30:26Z</time>
      </trkpt>
      <trkpt lat="44.33157" lon="2.47895">
        <ele>535</ele>
        <time>2013-06-18T10:30:33Z</time>
      </trkpt>
      <trkpt lat="44.33153" lon="2.47882">
        <ele>534</ele>
        <time>2013-06-18T10:30:38Z</time>
      </trkpt>
      <trkpt lat="44.33147" lon="2.47871">
        <ele>535</ele>
        <time>2013-06-18T10:30:43Z</time>
      </trkpt>
      <trkpt lat="44.33139" lon="2.47863">
        <ele>537</ele>
        <time>2013-06-18T10:30:48Z</time>
      </trkpt>
      <trkpt lat="44.33135" lon="2.47849">
        <ele>538</ele>
        <time>2013-06-18T10:30:56Z</time>
      </trkpt>
      <trkpt lat="44.33129" lon="2.47837">
        <ele>539</ele>
        <time>2013-06-18T10:31:02Z</time>
      </trkpt>
      <trkpt lat="44.33122" lon="2.47828">
        <ele>540</ele>
        <time>2013-06-18T10:31:07Z</time>
      </trkpt>
      <trkpt lat="44.33116" lon="2.47819">
        <ele>541</ele>
        <time>2013-06-18T10:31:13Z</time>
      </trkpt>
      <trkpt lat="44.33113" lon="2.47805">
        <ele>541</ele>
        <time>2013-06-18T10:31:22Z</time>
      </trkpt>
      <trkpt lat="44.33109" lon="2.47789">
        <ele>541</ele>
        <time>2013-06-18T10:31:32Z</time>
      </trkpt>
      <trkpt lat="44.33101" lon="2.47778">
        <ele>542</ele>
        <time>2013-06-18T10:31:39Z</time>
      </trkpt>
      <trkpt lat="44.33093" lon="2.47766">
        <ele>542</ele>
        <time>2013-06-18T10:31:44Z</time>
      </trkpt>
      <trkpt lat="44.33084" lon="2.47742">
        <ele>535</ele>
        <time>2013-06-18T10:32:14Z</time>
      </trkpt>
      <trkpt lat="44.33107" lon="2.47756">
        <ele>521</ele>
        <time>2013-06-18T10:32:30Z</time>
      </trkpt>
      <trkpt lat="44.33115" lon="2.47769">
        <ele>522</ele>
        <time>2013-06-18T10:32:36Z</time>
      </trkpt>
      <trkpt lat="44.33126" lon="2.47776">
        <ele>524</ele>
        <time>2013-06-18T10:32:42Z</time>
      </trkpt>
      <trkpt lat="44.33144" lon="2.47774">
        <ele>534</ele>
        <time>2013-06-18T10:33:08Z</time>
      </trkpt>
      <trkpt lat="44.3315" lon="2.47784">
        <ele>533</ele>
        <time>2013-06-18T10:33:13Z</time>
      </trkpt>
      <trkpt lat="44.33154" lon="2.47789">
        <ele>534</ele>
        <time>2013-06-18T10:33:25Z</time>
      </trkpt>
      <trkpt lat="44.33155" lon="2.47795">
        <ele>536</ele>
        <time>2013-06-18T10:33:36Z</time>
      </trkpt>
      <trkpt lat="44.33161" lon="2.47805">
        <ele>538</ele>
        <time>2013-06-18T10:33:43Z</time>
      </trkpt>
      <trkpt lat="44.33173" lon="2.47811">
        <ele>540</ele>
        <time>2013-06-18T10:33:47Z</time>
      </trkpt>
      <trkpt lat="44.33183" lon="2.47809">
        <ele>541</ele>
        <time>2013-06-18T10:33:55Z</time>
      </trkpt>
      <trkpt lat="44.33196" lon="2.4781">
        <ele>542</ele>
        <time>2013-06-18T10:34:08Z</time>
      </trkpt>
      <trkpt lat="44.33208" lon="2.47814">
        <ele>543</ele>
        <time>2013-06-18T10:34:12Z</time>
      </trkpt>
      <trkpt lat="44.33217" lon="2.47817">
        <ele>543</ele>
        <time>2013-06-18T10:34:17Z</time>
      </trkpt>
      <trkpt lat="44.33226" lon="2.47814">
        <ele>544</ele>
        <time>2013-06-18T10:34:25Z</time>
      </trkpt>
      <trkpt lat="44.33235" lon="2.47801">
        <ele>543</ele>
        <time>2013-06-18T10:34:36Z</time>
      </trkpt>
      <trkpt lat="44.3324" lon="2.4779">
        <ele>544</ele>
        <time>2013-06-18T10:34:48Z</time>
      </trkpt>
      <trkpt lat="44.33248" lon="2.47781">
        <ele>545</ele>
        <time>2013-06-18T10:34:58Z</time>
      </trkpt>
      <trkpt lat="44.33249" lon="2.47768">
        <ele>544</ele>
        <time>2013-06-18T10:35:05Z</time>
      </trkpt>
      <trkpt lat="44.33261" lon="2.47776">
        <ele>546</ele>
        <time>2013-06-18T10:35:21Z</time>
      </trkpt>
      <trkpt lat="44.33311" lon="2.47895">
        <ele>545</ele>
        <time>2013-06-18T10:35:40Z</time>
      </trkpt>
      <trkpt lat="44.33322" lon="2.47884">
        <ele>544</ele>
        <time>2013-06-18T10:35:48Z</time>
      </trkpt>
      <trkpt lat="44.33331" lon="2.47877">
        <ele>539</ele>
        <time>2013-06-18T10:35:54Z</time>
      </trkpt>
      <trkpt lat="44.33349" lon="2.47881">
        <ele>528</ele>
        <time>2013-06-18T10:36:06Z</time>
      </trkpt>
      <trkpt lat="44.33356" lon="2.47891">
        <ele>515</ele>
        <time>2013-06-18T10:36:19Z</time>
      </trkpt>
      <trkpt lat="44.33374" lon="2.47957">
        <ele>477</ele>
        <time>2013-06-18T10:36:56Z</time>
      </trkpt>
      <trkpt lat="44.33376" lon="2.47971">
        <ele>474</ele>
        <time>2013-06-18T10:37:03Z</time>
      </trkpt>
      <trkpt lat="44.33379" lon="2.47986">
        <ele>472</ele>
        <time>2013-06-18T10:37:10Z</time>
      </trkpt>
      <trkpt lat="44.33385" lon="2.48005">
        <ele>471</ele>
        <time>2013-06-18T10:37:30Z</time>
      </trkpt>
      <trkpt lat="44.33385" lon="2.48013">
        <ele>474</ele>
        <time>2013-06-18T10:37:44Z</time>
      </trkpt>
      <trkpt lat="44.3339" lon="2.48026">
        <ele>470</ele>
        <time>2013-06-18T10:38:10Z</time>
      </trkpt>
      <trkpt lat="44.33393" lon="2.48038">
        <ele>471</ele>
        <time>2013-06-18T10:38:21Z</time>
      </trkpt>
      <trkpt lat="44.33397" lon="2.48045">
        <ele>472</ele>
        <time>2013-06-18T10:38:27Z</time>
      </trkpt>
      <trkpt lat="44.33407" lon="2.48049">
        <ele>471</ele>
        <time>2013-06-18T10:38:42Z</time>
      </trkpt>
      <trkpt lat="44.33417" lon="2.48046">
        <ele>468</ele>
        <time>2013-06-18T10:38:54Z</time>
      </trkpt>
      <trkpt lat="44.33426" lon="2.48045">
        <ele>466</ele>
        <time>2013-06-18T10:39:03Z</time>
      </trkpt>
      <trkpt lat="44.33427" lon="2.48049">
        <ele>461</ele>
        <time>2013-06-18T10:39:45Z</time>
      </trkpt>
      <trkpt lat="44.3344" lon="2.48039">
        <ele>463</ele>
        <time>2013-06-18T10:40:20Z</time>
      </trkpt>
      <trkpt lat="44.33445" lon="2.48029">
        <ele>471</ele>
        <time>2013-06-18T10:41:15Z</time>
      </trkpt>
      <trkpt lat="44.33455" lon="2.48028">
        <ele>468</ele>
        <time>2013-06-18T10:41:48Z</time>
      </trkpt>
      <trkpt lat="44.33466" lon="2.48024">
        <ele>469</ele>
        <time>2013-06-18T10:42:13Z</time>
      </trkpt>
      <trkpt lat="44.33469" lon="2.48023">
        <ele>471</ele>
        <time>2013-06-18T10:42:26Z</time>
      </trkpt>
      <trkpt lat="44.33473" lon="2.48026">
        <ele>475</ele>
        <time>2013-06-18T10:43:31Z</time>
      </trkpt>
      <trkpt lat="44.33477" lon="2.48031">
        <ele>473</ele>
        <time>2013-06-18T10:43:46Z</time>
      </trkpt>
      <trkpt lat="44.33476" lon="2.48035">
        <ele>474</ele>
        <time>2013-06-18T10:44:14Z</time>
      </trkpt>
      <trkpt lat="44.33472" lon="2.48031">
        <ele>478</ele>
        <time>2013-06-18T10:44:28Z</time>
      </trkpt>
      <trkpt lat="44.33463" lon="2.48032">
        <ele>476</ele>
        <time>2013-06-18T10:45:33Z</time>
      </trkpt>
      <trkpt lat="44.33465" lon="2.48028">
        <ele>470</ele>
        <time>2013-06-18T10:46:44Z</time>
      </trkpt>
      <trkpt lat="44.33462" lon="2.48022">
        <ele>469</ele>
        <time>2013-06-18T10:47:21Z</time>
      </trkpt>
      <trkpt lat="44.33471" lon="2.48025">
        <ele>470</ele>
        <time>2013-06-18T10:47:33Z</time>
      </trkpt>
      <trkpt lat="44.33476" lon="2.48023">
        <ele>472</ele>
        <time>2013-06-18T10:48:08Z</time>
      </trkpt>
      <trkpt lat="44.33485" lon="2.48018">
        <ele>474</ele>
        <time>2013-06-18T10:48:18Z</time>
      </trkpt>
      <trkpt lat="44.33492" lon="2.48006">
        <ele>475</ele>
        <time>2013-06-18T10:48:26Z</time>
      </trkpt>
      <trkpt lat="44.33499" lon="2.47994">
        <ele>476</ele>
        <time>2013-06-18T10:48:34Z</time>
      </trkpt>
      <trkpt lat="44.33507" lon="2.47985">
        <ele>473</ele>
        <time>2013-06-18T10:48:42Z</time>
      </trkpt>
      <trkpt lat="44.33516" lon="2.4798">
        <ele>473</ele>
        <time>2013-06-18T10:48:51Z</time>
      </trkpt>
      <trkpt lat="44.33518" lon="2.47972">
        <ele>475</ele>
        <time>2013-06-18T10:49:23Z</time>
      </trkpt>
      <trkpt lat="44.33528" lon="2.47973">
        <ele>478</ele>
        <time>2013-06-18T10:49:37Z</time>
      </trkpt>
      <trkpt lat="44.3353" lon="2.47976">
        <ele>467</ele>
        <time>2013-06-18T10:50:29Z</time>
      </trkpt>
      <trkpt lat="44.33536" lon="2.47969">
        <ele>472</ele>
        <time>2013-06-18T10:51:21Z</time>
      </trkpt>
      <trkpt lat="44.33544" lon="2.47981">
        <ele>471</ele>
        <time>2013-06-18T10:51:29Z</time>
      </trkpt>
      <trkpt lat="44.33546" lon="2.47994">
        <ele>469</ele>
        <time>2013-06-18T10:51:35Z</time>
      </trkpt>
      <trkpt lat="44.33545" lon="2.48007">
        <ele>464</ele>
        <time>2013-06-18T10:51:40Z</time>
      </trkpt>
      <trkpt lat="44.33542" lon="2.4802">
        <ele>462</ele>
        <time>2013-06-18T10:51:46Z</time>
      </trkpt>
      <trkpt lat="44.33539" lon="2.48033">
        <ele>462</ele>
        <time>2013-06-18T10:51:52Z</time>
      </trkpt>
      <trkpt lat="44.33538" lon="2.48046">
        <ele>464</ele>
        <time>2013-06-18T10:51:58Z</time>
      </trkpt>
      <trkpt lat="44.3354" lon="2.48059">
        <ele>467</ele>
        <time>2013-06-18T10:52:05Z</time>
      </trkpt>
      <trkpt lat="44.33544" lon="2.48071">
        <ele>470</ele>
        <time>2013-06-18T10:52:10Z</time>
      </trkpt>
      <trkpt lat="44.33548" lon="2.4808">
        <ele>472</ele>
        <time>2013-06-18T10:52:16Z</time>
      </trkpt>
      <trkpt lat="44.33557" lon="2.4808">
        <ele>473</ele>
        <time>2013-06-18T10:52:28Z</time>
      </trkpt>
      <trkpt lat="44.33566" lon="2.48077">
        <ele>474</ele>
        <time>2013-06-18T10:52:37Z</time>
      </trkpt>
      <trkpt lat="44.33575" lon="2.48077">
        <ele>475</ele>
        <time>2013-06-18T10:52:44Z</time>
      </trkpt>
      <trkpt lat="44.33584" lon="2.48079">
        <ele>473</ele>
        <time>2013-06-18T10:52:50Z</time>
      </trkpt>
      <trkpt lat="44.33593" lon="2.48083">
        <ele>473</ele>
        <time>2013-06-18T10:52:57Z</time>
      </trkpt>
      <trkpt lat="44.33604" lon="2.48089">
        <ele>475</ele>
        <time>2013-06-18T10:53:03Z</time>
      </trkpt>
      <trkpt lat="44.33613" lon="2.48094">
        <ele>475</ele>
        <time>2013-06-18T10:53:09Z</time>
      </trkpt>
      <trkpt lat="44.33625" lon="2.48095">
        <ele>475</ele>
        <time>2013-06-18T10:53:16Z</time>
      </trkpt>
      <trkpt lat="44.33634" lon="2.48099">
        <ele>476</ele>
        <time>2013-06-18T10:53:24Z</time>
      </trkpt>
      <trkpt lat="44.33642" lon="2.48104">
        <ele>477</ele>
        <time>2013-06-18T10:53:32Z</time>
      </trkpt>
      <trkpt lat="44.33651" lon="2.48107">
        <ele>479</ele>
        <time>2013-06-18T10:53:37Z</time>
      </trkpt>
      <trkpt lat="44.33661" lon="2.48102">
        <ele>481</ele>
        <time>2013-06-18T10:53:41Z</time>
      </trkpt>
      <trkpt lat="44.3367" lon="2.48098">
        <ele>483</ele>
        <time>2013-06-18T10:53:46Z</time>
      </trkpt>
      <trkpt lat="44.33679" lon="2.48093">
        <ele>485</ele>
        <time>2013-06-18T10:53:55Z</time>
      </trkpt>
      <trkpt lat="44.33688" lon="2.48093">
        <ele>485</ele>
        <time>2013-06-18T10:54:00Z</time>
      </trkpt>
      <trkpt lat="44.33698" lon="2.48091">
        <ele>487</ele>
        <time>2013-06-18T10:54:10Z</time>
      </trkpt>
      <trkpt lat="44.33707" lon="2.48086">
        <ele>487</ele>
        <time>2013-06-18T10:54:19Z</time>
      </trkpt>
      <trkpt lat="44.33716" lon="2.48084">
        <ele>486</ele>
        <time>2013-06-18T10:54:23Z</time>
      </trkpt>
      <trkpt lat="44.33725" lon="2.48079">
        <ele>486</ele>
        <time>2013-06-18T10:54:29Z</time>
      </trkpt>
      <trkpt lat="44.33734" lon="2.48074">
        <ele>483</ele>
        <time>2013-06-18T10:54:35Z</time>
      </trkpt>
      <trkpt lat="44.33742" lon="2.48069">
        <ele>484</ele>
        <time>2013-06-18T10:54:43Z</time>
      </trkpt>
      <trkpt lat="44.33752" lon="2.48067">
        <ele>482</ele>
        <time>2013-06-18T10:54:48Z</time>
      </trkpt>
      <trkpt lat="44.33762" lon="2.48067">
        <ele>480</ele>
        <time>2013-06-18T10:54:57Z</time>
      </trkpt>
      <trkpt lat="44.33771" lon="2.48067">
        <ele>480</ele>
        <time>2013-06-18T10:55:05Z</time>
      </trkpt>
      <trkpt lat="44.33779" lon="2.48058">
        <ele>481</ele>
        <time>2013-06-18T10:55:11Z</time>
      </trkpt>
      <trkpt lat="44.33787" lon="2.48049">
        <ele>482</ele>
        <time>2013-06-18T10:55:19Z</time>
      </trkpt>
      <trkpt lat="44.33792" lon="2.48039">
        <ele>481</ele>
        <time>2013-06-18T10:55:26Z</time>
      </trkpt>
      <trkpt lat="44.33798" lon="2.48029">
        <ele>480</ele>
        <time>2013-06-18T10:55:32Z</time>
      </trkpt>
      <trkpt lat="44.33806" lon="2.4802">
        <ele>478</ele>
        <time>2013-06-18T10:55:38Z</time>
      </trkpt>
      <trkpt lat="44.33813" lon="2.48011">
        <ele>477</ele>
        <time>2013-06-18T10:55:45Z</time>
      </trkpt>
      <trkpt lat="44.33818" lon="2.47998">
        <ele>477</ele>
        <time>2013-06-18T10:55:50Z</time>
      </trkpt>
      <trkpt lat="44.33824" lon="2.47989">
        <ele>477</ele>
        <time>2013-06-18T10:55:55Z</time>
      </trkpt>
      <trkpt lat="44.33833" lon="2.47979">
        <ele>478</ele>
        <time>2013-06-18T10:56:02Z</time>
      </trkpt>
      <trkpt lat="44.33839" lon="2.47967">
        <ele>477</ele>
        <time>2013-06-18T10:56:07Z</time>
      </trkpt>
      <trkpt lat="44.33841" lon="2.47953">
        <ele>475</ele>
        <time>2013-06-18T10:56:12Z</time>
      </trkpt>
      <trkpt lat="44.33847" lon="2.47939">
        <ele>474</ele>
        <time>2013-06-18T10:56:17Z</time>
      </trkpt>
      <trkpt lat="44.33852" lon="2.4793">
        <ele>476</ele>
        <time>2013-06-18T10:56:22Z</time>
      </trkpt>
      <trkpt lat="44.33855" lon="2.47924">
        <ele>478</ele>
        <time>2013-06-18T10:56:26Z</time>
      </trkpt>
      <trkpt lat="44.33863" lon="2.47916">
        <ele>480</ele>
        <time>2013-06-18T10:56:34Z</time>
      </trkpt>
      <trkpt lat="44.33864" lon="2.47908">
        <ele>481</ele>
        <time>2013-06-18T10:56:45Z</time>
      </trkpt>
      <trkpt lat="44.33863" lon="2.47897">
        <ele>487</ele>
        <time>2013-06-18T10:57:31Z</time>
      </trkpt>
      <trkpt lat="44.33867" lon="2.47891">
        <ele>487</ele>
        <time>2013-06-18T10:57:37Z</time>
      </trkpt>
      <trkpt lat="44.3387" lon="2.47885">
        <ele>487</ele>
        <time>2013-06-18T10:57:41Z</time>
      </trkpt>
      <trkpt lat="44.33873" lon="2.47879">
        <ele>487</ele>
        <time>2013-06-18T10:57:45Z</time>
      </trkpt>
      <trkpt lat="44.33876" lon="2.47871">
        <ele>486</ele>
        <time>2013-06-18T10:57:50Z</time>
      </trkpt>
      <trkpt lat="44.33879" lon="2.47866">
        <ele>485</ele>
        <time>2013-06-18T10:57:54Z</time>
      </trkpt>
      <trkpt lat="44.33883" lon="2.47858">
        <ele>484</ele>
        <time>2013-06-18T10:58:02Z</time>
      </trkpt>
      <trkpt lat="44.33888" lon="2.47846">
        <ele>483</ele>
        <time>2013-06-18T10:58:06Z</time>
      </trkpt>
      <trkpt lat="44.33893" lon="2.47833">
        <ele>481</ele>
        <time>2013-06-18T10:58:12Z</time>
      </trkpt>
      <trkpt lat="44.33897" lon="2.4782">
        <ele>480</ele>
        <time>2013-06-18T10:58:18Z</time>
      </trkpt>
      <trkpt lat="44.33897" lon="2.47813">
        <ele>480</ele>
        <time>2013-06-18T10:58:21Z</time>
      </trkpt>
      <trkpt lat="44.33898" lon="2.47809">
        <ele>482</ele>
        <time>2013-06-18T10:58:29Z</time>
      </trkpt>
      <trkpt lat="44.33902" lon="2.47799">
        <ele>484</ele>
        <time>2013-06-18T10:59:05Z</time>
      </trkpt>
      <trkpt lat="44.33902" lon="2.4779">
        <ele>484</ele>
        <time>2013-06-18T10:59:25Z</time>
      </trkpt>
      <trkpt lat="44.33904" lon="2.47784">
        <ele>483</ele>
        <time>2013-06-18T10:59:32Z</time>
      </trkpt>
      <trkpt lat="44.33906" lon="2.47773">
        <ele>481</ele>
        <time>2013-06-18T10:59:38Z</time>
      </trkpt>
      <trkpt lat="44.3391" lon="2.4776">
        <ele>476</ele>
        <time>2013-06-18T10:59:48Z</time>
      </trkpt>
      <trkpt lat="44.33912" lon="2.47746">
        <ele>475</ele>
        <time>2013-06-18T10:59:54Z</time>
      </trkpt>
      <trkpt lat="44.33913" lon="2.47733">
        <ele>473</ele>
        <time>2013-06-18T10:59:59Z</time>
      </trkpt>
      <trkpt lat="44.33914" lon="2.47718">
        <ele>471</ele>
        <time>2013-06-18T11:00:04Z</time>
      </trkpt>
      <trkpt lat="44.33918" lon="2.47705">
        <ele>471</ele>
        <time>2013-06-18T11:00:11Z</time>
      </trkpt>
      <trkpt lat="44.33921" lon="2.47693">
        <ele>472</ele>
        <time>2013-06-18T11:00:15Z</time>
      </trkpt>
      <trkpt lat="44.33927" lon="2.47676">
        <ele>473</ele>
        <time>2013-06-18T11:00:22Z</time>
      </trkpt>
      <trkpt lat="44.33931" lon="2.47665">
        <ele>478</ele>
        <time>2013-06-18T11:00:28Z</time>
      </trkpt>
      <trkpt lat="44.33935" lon="2.47652">
        <ele>480</ele>
        <time>2013-06-18T11:00:33Z</time>
      </trkpt>
      <trkpt lat="44.33935" lon="2.47644">
        <ele>480</ele>
        <time>2013-06-18T11:00:36Z</time>
      </trkpt>
      <trkpt lat="44.33937" lon="2.47637">
        <ele>481</ele>
        <time>2013-06-18T11:00:39Z</time>
      </trkpt>
      <trkpt lat="44.33939" lon="2.47632">
        <ele>482</ele>
        <time>2013-06-18T11:00:43Z</time>
      </trkpt>
      <trkpt lat="44.33946" lon="2.4762">
        <ele>481</ele>
        <time>2013-06-18T11:00:52Z</time>
      </trkpt>
      <trkpt lat="44.33951" lon="2.47607">
        <ele>479</ele>
        <time>2013-06-18T11:01:03Z</time>
      </trkpt>
      <trkpt lat="44.33961" lon="2.47582">
        <ele>466</ele>
        <time>2013-06-18T11:01:18Z</time>
      </trkpt>
      <trkpt lat="44.33965" lon="2.4757">
        <ele>465</ele>
        <time>2013-06-18T11:01:22Z</time>
      </trkpt>
      <trkpt lat="44.33968" lon="2.47556">
        <ele>464</ele>
        <time>2013-06-18T11:01:27Z</time>
      </trkpt>
      <trkpt lat="44.3397" lon="2.47541">
        <ele>465</ele>
        <time>2013-06-18T11:01:32Z</time>
      </trkpt>
      <trkpt lat="44.33975" lon="2.47525">
        <ele>466</ele>
        <time>2013-06-18T11:01:37Z</time>
      </trkpt>
      <trkpt lat="44.33982" lon="2.47514">
        <ele>466</ele>
        <time>2013-06-18T11:01:42Z</time>
      </trkpt>
      <trkpt lat="44.33983" lon="2.47498">
        <ele>468</ele>
        <time>2013-06-18T11:01:49Z</time>
      </trkpt>
      <trkpt lat="44.33984" lon="2.47491">
        <ele>469</ele>
        <time>2013-06-18T11:01:52Z</time>
      </trkpt>
      <trkpt lat="44.33988" lon="2.47477">
        <ele>472</ele>
        <time>2013-06-18T11:01:58Z</time>
      </trkpt>
      <trkpt lat="44.33991" lon="2.47463">
        <ele>474</ele>
        <time>2013-06-18T11:02:05Z</time>
      </trkpt>
      <trkpt lat="44.33992" lon="2.47453">
        <ele>476</ele>
        <time>2013-06-18T11:02:09Z</time>
      </trkpt>
      <trkpt lat="44.33991" lon="2.47441">
        <ele>477</ele>
        <time>2013-06-18T11:02:16Z</time>
      </trkpt>
      <trkpt lat="44.33994" lon="2.47434">
        <ele>479</ele>
        <time>2013-06-18T11:02:19Z</time>
      </trkpt>
      <trkpt lat="44.33996" lon="2.47419">
        <ele>479</ele>
        <time>2013-06-18T11:02:26Z</time>
      </trkpt>
      <trkpt lat="44.33997" lon="2.47403">
        <ele>479</ele>
        <time>2013-06-18T11:02:32Z</time>
      </trkpt>
      <trkpt lat="44.34" lon="2.47389">
        <ele>478</ele>
        <time>2013-06-18T11:02:37Z</time>
      </trkpt>
      <trkpt lat="44.34003" lon="2.47377">
        <ele>478</ele>
        <time>2013-06-18T11:02:43Z</time>
      </trkpt>
      <trkpt lat="44.34009" lon="2.47365">
        <ele>479</ele>
        <time>2013-06-18T11:02:49Z</time>
      </trkpt>
      <trkpt lat="44.34013" lon="2.47354">
        <ele>480</ele>
        <time>2013-06-18T11:02:56Z</time>
      </trkpt>
      <trkpt lat="44.34019" lon="2.47344">
        <ele>481</ele>
        <time>2013-06-18T11:03:02Z</time>
      </trkpt>
      <trkpt lat="44.34026" lon="2.47339">
        <ele>484</ele>
        <time>2013-06-18T11:03:08Z</time>
      </trkpt>
      <trkpt lat="44.34026" lon="2.47332">
        <ele>487</ele>
        <time>2013-06-18T11:03:12Z</time>
      </trkpt>
      <trkpt lat="44.34021" lon="2.47319">
        <ele>489</ele>
        <time>2013-06-18T11:03:17Z</time>
      </trkpt>
      <trkpt lat="44.3402" lon="2.47309">
        <ele>490</ele>
        <time>2013-06-18T11:03:21Z</time>
      </trkpt>
      <trkpt lat="44.34021" lon="2.473">
        <ele>490</ele>
        <time>2013-06-18T11:03:25Z</time>
      </trkpt>
      <trkpt lat="44.34023" lon="2.47293">
        <ele>490</ele>
        <time>2013-06-18T11:03:29Z</time>
      </trkpt>
      <trkpt lat="44.34023" lon="2.47278">
        <ele>490</ele>
        <time>2013-06-18T11:03:38Z</time>
      </trkpt>
      <trkpt lat="44.34024" lon="2.47263">
        <ele>489</ele>
        <time>2013-06-18T11:03:46Z</time>
      </trkpt>
      <trkpt lat="44.34024" lon="2.47249">
        <ele>489</ele>
        <time>2013-06-18T11:03:53Z</time>
      </trkpt>
      <trkpt lat="44.34022" lon="2.47236">
        <ele>490</ele>
        <time>2013-06-18T11:03:59Z</time>
      </trkpt>
      <trkpt lat="44.34021" lon="2.47222">
        <ele>489</ele>
        <time>2013-06-18T11:04:04Z</time>
      </trkpt>
      <trkpt lat="44.34023" lon="2.47208">
        <ele>485</ele>
        <time>2013-06-18T11:04:11Z</time>
      </trkpt>
      <trkpt lat="44.34023" lon="2.47195">
        <ele>483</ele>
        <time>2013-06-18T11:04:17Z</time>
      </trkpt>
      <trkpt lat="44.34021" lon="2.47182">
        <ele>482</ele>
        <time>2013-06-18T11:04:21Z</time>
      </trkpt>
      <trkpt lat="44.34021" lon="2.47169">
        <ele>483</ele>
        <time>2013-06-18T11:04:27Z</time>
      </trkpt>
      <trkpt lat="44.34018" lon="2.47156">
        <ele>484</ele>
        <time>2013-06-18T11:04:33Z</time>
      </trkpt>
      <trkpt lat="44.34016" lon="2.47141">
        <ele>486</ele>
        <time>2013-06-18T11:04:40Z</time>
      </trkpt>
      <trkpt lat="44.34015" lon="2.47128">
        <ele>486</ele>
        <time>2013-06-18T11:04:45Z</time>
      </trkpt>
      <trkpt lat="44.34011" lon="2.47116">
        <ele>487</ele>
        <time>2013-06-18T11:04:53Z</time>
      </trkpt>
      <trkpt lat="44.34007" lon="2.47101">
        <ele>487</ele>
        <time>2013-06-18T11:04:58Z</time>
      </trkpt>
      <trkpt lat="44.34004" lon="2.47087">
        <ele>488</ele>
        <time>2013-06-18T11:05:03Z</time>
      </trkpt>
      <trkpt lat="44.34003" lon="2.4708">
        <ele>488</ele>
        <time>2013-06-18T11:05:05Z</time>
      </trkpt>
      <trkpt lat="44.34003" lon="2.47069">
        <ele>489</ele>
        <time>2013-06-18T11:05:09Z</time>
      </trkpt>
      <trkpt lat="44.34" lon="2.47056">
        <ele>491</ele>
        <time>2013-06-18T11:05:17Z</time>
      </trkpt>
      <trkpt lat="44.33999" lon="2.4705">
        <ele>492</ele>
        <time>2013-06-18T11:05:20Z</time>
      </trkpt>
      <trkpt lat="44.33998" lon="2.47035">
        <ele>489</ele>
        <time>2013-06-18T11:05:27Z</time>
      </trkpt>
      <trkpt lat="44.33997" lon="2.47022">
        <ele>488</ele>
        <time>2013-06-18T11:05:34Z</time>
      </trkpt>
      <trkpt lat="44.33996" lon="2.47008">
        <ele>487</ele>
        <time>2013-06-18T11:05:41Z</time>
      </trkpt>
      <trkpt lat="44.33993" lon="2.46994">
        <ele>489</ele>
        <time>2013-06-18T11:05:48Z</time>
      </trkpt>
      <trkpt lat="44.33992" lon="2.46981">
        <ele>490</ele>
        <time>2013-06-18T11:05:54Z</time>
      </trkpt>
      <trkpt lat="44.33992" lon="2.46967">
        <ele>487</ele>
        <time>2013-06-18T11:06:01Z</time>
      </trkpt>
      <trkpt lat="44.33988" lon="2.46953">
        <ele>487</ele>
        <time>2013-06-18T11:06:06Z</time>
      </trkpt>
      <trkpt lat="44.33984" lon="2.46938">
        <ele>487</ele>
        <time>2013-06-18T11:06:12Z</time>
      </trkpt>
      <trkpt lat="44.3398" lon="2.46924">
        <ele>487</ele>
        <time>2013-06-18T11:06:16Z</time>
      </trkpt>
      <trkpt lat="44.33975" lon="2.46913">
        <ele>488</ele>
        <time>2013-06-18T11:06:21Z</time>
      </trkpt>
      <trkpt lat="44.33972" lon="2.469">
        <ele>486</ele>
        <time>2013-06-18T11:06:29Z</time>
      </trkpt>
      <trkpt lat="44.3397" lon="2.46887">
        <ele>487</ele>
        <time>2013-06-18T11:06:35Z</time>
      </trkpt>
      <trkpt lat="44.33967" lon="2.46875">
        <ele>486</ele>
        <time>2013-06-18T11:06:41Z</time>
      </trkpt>
      <trkpt lat="44.33966" lon="2.46866">
        <ele>485</ele>
        <time>2013-06-18T11:06:44Z</time>
      </trkpt>
      <trkpt lat="44.33965" lon="2.46859">
        <ele>483</ele>
        <time>2013-06-18T11:06:47Z</time>
      </trkpt>
      <trkpt lat="44.33964" lon="2.46847">
        <ele>482</ele>
        <time>2013-06-18T11:06:53Z</time>
      </trkpt>
      <trkpt lat="44.33965" lon="2.46837">
        <ele>481</ele>
        <time>2013-06-18T11:06:59Z</time>
      </trkpt>
      <trkpt lat="44.33967" lon="2.46824">
        <ele>480</ele>
        <time>2013-06-18T11:07:06Z</time>
      </trkpt>
      <trkpt lat="44.3397" lon="2.46811">
        <ele>480</ele>
        <time>2013-06-18T11:07:11Z</time>
      </trkpt>
      <trkpt lat="44.33972" lon="2.46796">
        <ele>478</ele>
        <time>2013-06-18T11:07:20Z</time>
      </trkpt>
      <trkpt lat="44.33975" lon="2.46782">
        <ele>479</ele>
        <time>2013-06-18T11:07:26Z</time>
      </trkpt>
      <trkpt lat="44.33975" lon="2.46768">
        <ele>479</ele>
        <time>2013-06-18T11:07:32Z</time>
      </trkpt>
      <trkpt lat="44.33978" lon="2.46757">
        <ele>477</ele>
        <time>2013-06-18T11:07:38Z</time>
      </trkpt>
      <trkpt lat="44.33982" lon="2.46744">
        <ele>475</ele>
        <time>2013-06-18T11:07:44Z</time>
      </trkpt>
      <trkpt lat="44.33985" lon="2.46731">
        <ele>474</ele>
        <time>2013-06-18T11:07:50Z</time>
      </trkpt>
      <trkpt lat="44.33987" lon="2.46723">
        <ele>474</ele>
        <time>2013-06-18T11:07:54Z</time>
      </trkpt>
      <trkpt lat="44.33989" lon="2.46716">
        <ele>475</ele>
        <time>2013-06-18T11:07:57Z</time>
      </trkpt>
      <trkpt lat="44.3399" lon="2.4671">
        <ele>475</ele>
        <time>2013-06-18T11:08:00Z</time>
      </trkpt>
      <trkpt lat="44.33992" lon="2.46703">
        <ele>473</ele>
        <time>2013-06-18T11:08:04Z</time>
      </trkpt>
      <trkpt lat="44.33997" lon="2.46691">
        <ele>473</ele>
        <time>2013-06-18T11:08:11Z</time>
      </trkpt>
      <trkpt lat="44.34001" lon="2.46681">
        <ele>474</ele>
        <time>2013-06-18T11:08:18Z</time>
      </trkpt>
      <trkpt lat="44.34002" lon="2.46673">
        <ele>475</ele>
        <time>2013-06-18T11:08:22Z</time>
      </trkpt>
      <trkpt lat="44.34005" lon="2.46658">
        <ele>476</ele>
        <time>2013-06-18T11:08:30Z</time>
      </trkpt>
      <trkpt lat="44.3401" lon="2.46646">
        <ele>475</ele>
        <time>2013-06-18T11:08:36Z</time>
      </trkpt>
      <trkpt lat="44.34014" lon="2.46634">
        <ele>475</ele>
        <time>2013-06-18T11:08:42Z</time>
      </trkpt>
      <trkpt lat="44.34017" lon="2.4662">
        <ele>476</ele>
        <time>2013-06-18T11:08:49Z</time>
      </trkpt>
      <trkpt lat="44.34021" lon="2.46608">
        <ele>476</ele>
        <time>2013-06-18T11:08:57Z</time>
      </trkpt>
      <trkpt lat="44.34028" lon="2.46599">
        <ele>478</ele>
        <time>2013-06-18T11:09:04Z</time>
      </trkpt>
      <trkpt lat="44.34031" lon="2.46593">
        <ele>479</ele>
        <time>2013-06-18T11:09:08Z</time>
      </trkpt>
      <trkpt lat="44.34039" lon="2.46584">
        <ele>480</ele>
        <time>2013-06-18T11:09:15Z</time>
      </trkpt>
      <trkpt lat="44.34042" lon="2.4658">
        <ele>481</ele>
        <time>2013-06-18T11:09:18Z</time>
      </trkpt>
      <trkpt lat="44.3405" lon="2.46569">
        <ele>481</ele>
        <time>2013-06-18T11:09:27Z</time>
      </trkpt>
      <trkpt lat="44.34058" lon="2.46561">
        <ele>481</ele>
        <time>2013-06-18T11:09:35Z</time>
      </trkpt>
      <trkpt lat="44.34066" lon="2.4655">
        <ele>480</ele>
        <time>2013-06-18T11:09:41Z</time>
      </trkpt>
      <trkpt lat="44.34071" lon="2.46538">
        <ele>481</ele>
        <time>2013-06-18T11:09:47Z</time>
      </trkpt>
      <trkpt lat="44.34078" lon="2.46528">
        <ele>484</ele>
        <time>2013-06-18T11:09:53Z</time>
      </trkpt>
      <trkpt lat="44.34081" lon="2.46515">
        <ele>486</ele>
        <time>2013-06-18T11:09:58Z</time>
      </trkpt>
      <trkpt lat="44.34087" lon="2.46504">
        <ele>486</ele>
        <time>2013-06-18T11:10:05Z</time>
      </trkpt>
      <trkpt lat="44.34095" lon="2.46497">
        <ele>484</ele>
        <time>2013-06-18T11:10:13Z</time>
      </trkpt>
      <trkpt lat="44.34102" lon="2.46488">
        <ele>483</ele>
        <time>2013-06-18T11:10:24Z</time>
      </trkpt>
      <trkpt lat="44.34107" lon="2.46476">
        <ele>482</ele>
        <time>2013-06-18T11:10:31Z</time>
      </trkpt>
      <trkpt lat="44.34115" lon="2.46464">
        <ele>484</ele>
        <time>2013-06-18T11:10:41Z</time>
      </trkpt>
      <trkpt lat="44.3412" lon="2.46454">
        <ele>483</ele>
        <time>2013-06-18T11:10:50Z</time>
      </trkpt>
      <trkpt lat="44.34127" lon="2.46443">
        <ele>483</ele>
        <time>2013-06-18T11:10:56Z</time>
      </trkpt>
      <trkpt lat="44.34136" lon="2.46436">
        <ele>484</ele>
        <time>2013-06-18T11:11:02Z</time>
      </trkpt>
      <trkpt lat="44.34144" lon="2.4643">
        <ele>485</ele>
        <time>2013-06-18T11:11:08Z</time>
      </trkpt>
      <trkpt lat="44.34149" lon="2.46418">
        <ele>486</ele>
        <time>2013-06-18T11:11:14Z</time>
      </trkpt>
      <trkpt lat="44.34152" lon="2.46406">
        <ele>486</ele>
        <time>2013-06-18T11:11:20Z</time>
      </trkpt>
      <trkpt lat="44.34154" lon="2.46393">
        <ele>489</ele>
        <time>2013-06-18T11:11:27Z</time>
      </trkpt>
      <trkpt lat="44.34157" lon="2.4638">
        <ele>491</ele>
        <time>2013-06-18T11:11:34Z</time>
      </trkpt>
      <trkpt lat="44.34166" lon="2.46371">
        <ele>495</ele>
        <time>2013-06-18T11:11:42Z</time>
      </trkpt>
      <trkpt lat="44.34172" lon="2.4636">
        <ele>495</ele>
        <time>2013-06-18T11:11:47Z</time>
      </trkpt>
      <trkpt lat="44.34176" lon="2.46353">
        <ele>497</ele>
        <time>2013-06-18T11:11:51Z</time>
      </trkpt>
      <trkpt lat="44.3418" lon="2.46346">
        <ele>499</ele>
        <time>2013-06-18T11:11:57Z</time>
      </trkpt>
      <trkpt lat="44.34185" lon="2.4634">
        <ele>502</ele>
        <time>2013-06-18T11:12:02Z</time>
      </trkpt>
      <trkpt lat="44.34188" lon="2.46335">
        <ele>503</ele>
        <time>2013-06-18T11:12:06Z</time>
      </trkpt>
      <trkpt lat="44.34192" lon="2.46333">
        <ele>502</ele>
        <time>2013-06-18T11:12:10Z</time>
      </trkpt>
      <trkpt lat="44.34202" lon="2.46327">
        <ele>501</ele>
        <time>2013-06-18T11:12:18Z</time>
      </trkpt>
      <trkpt lat="44.34211" lon="2.46326">
        <ele>501</ele>
        <time>2013-06-18T11:12:30Z</time>
      </trkpt>
      <trkpt lat="44.34221" lon="2.4633">
        <ele>501</ele>
        <time>2013-06-18T11:12:37Z</time>
      </trkpt>
      <trkpt lat="44.34228" lon="2.46338">
        <ele>499</ele>
        <time>2013-06-18T11:12:43Z</time>
      </trkpt>
      <trkpt lat="44.34236" lon="2.46346">
        <ele>497</ele>
        <time>2013-06-18T11:12:48Z</time>
      </trkpt>
      <trkpt lat="44.34245" lon="2.46354">
        <ele>498</ele>
        <time>2013-06-18T11:12:57Z</time>
      </trkpt>
      <trkpt lat="44.34276" lon="2.46373">
        <ele>522</ele>
        <time>2013-06-18T11:14:21Z</time>
      </trkpt>
      <trkpt lat="44.34284" lon="2.46371">
        <ele>523</ele>
        <time>2013-06-18T11:15:20Z</time>
      </trkpt>
      <trkpt lat="44.34289" lon="2.46368">
        <ele>523</ele>
        <time>2013-06-18T11:15:27Z</time>
      </trkpt>
      <trkpt lat="44.34294" lon="2.46364">
        <ele>523</ele>
        <time>2013-06-18T11:15:31Z</time>
      </trkpt>
      <trkpt lat="44.34298" lon="2.4636">
        <ele>522</ele>
        <time>2013-06-18T11:15:35Z</time>
      </trkpt>
      <trkpt lat="44.34303" lon="2.46361">
        <ele>520</ele>
        <time>2013-06-18T11:15:39Z</time>
      </trkpt>
      <trkpt lat="44.34308" lon="2.46363">
        <ele>519</ele>
        <time>2013-06-18T11:15:43Z</time>
      </trkpt>
      <trkpt lat="44.34314" lon="2.46364">
        <ele>519</ele>
        <time>2013-06-18T11:15:47Z</time>
      </trkpt>
      <trkpt lat="44.34319" lon="2.46364">
        <ele>519</ele>
        <time>2013-06-18T11:15:50Z</time>
      </trkpt>
      <trkpt lat="44.34324" lon="2.46365">
        <ele>518</ele>
        <time>2013-06-18T11:15:55Z</time>
      </trkpt>
      <trkpt lat="44.3433" lon="2.46365">
        <ele>518</ele>
        <time>2013-06-18T11:15:58Z</time>
      </trkpt>
      <trkpt lat="44.34334" lon="2.46368">
        <ele>517</ele>
        <time>2013-06-18T11:16:01Z</time>
      </trkpt>
      <trkpt lat="44.34339" lon="2.46371">
        <ele>518</ele>
        <time>2013-06-18T11:16:05Z</time>
      </trkpt>
      <trkpt lat="44.34344" lon="2.46373">
        <ele>518</ele>
        <time>2013-06-18T11:16:09Z</time>
      </trkpt>
      <trkpt lat="44.34349" lon="2.46374">
        <ele>517</ele>
        <time>2013-06-18T11:16:13Z</time>
      </trkpt>
      <trkpt lat="44.34354" lon="2.46373">
        <ele>516</ele>
        <time>2013-06-18T11:16:18Z</time>
      </trkpt>
      <trkpt lat="44.3436" lon="2.46374">
        <ele>515</ele>
        <time>2013-06-18T11:16:21Z</time>
      </trkpt>
      <trkpt lat="44.34365" lon="2.46375">
        <ele>514</ele>
        <time>2013-06-18T11:16:24Z</time>
      </trkpt>
      <trkpt lat="44.34369" lon="2.46375">
        <ele>514</ele>
        <time>2013-06-18T11:16:27Z</time>
      </trkpt>
      <trkpt lat="44.34374" lon="2.46374">
        <ele>514</ele>
        <time>2013-06-18T11:16:30Z</time>
      </trkpt>
      <trkpt lat="44.34379" lon="2.46373">
        <ele>513</ele>
        <time>2013-06-18T11:16:35Z</time>
      </trkpt>
      <trkpt lat="44.34384" lon="2.46372">
        <ele>513</ele>
        <time>2013-06-18T11:16:38Z</time>
      </trkpt>
      <trkpt lat="44.34389" lon="2.46371">
        <ele>514</ele>
        <time>2013-06-18T11:16:41Z</time>
      </trkpt>
      <trkpt lat="44.34395" lon="2.46373">
        <ele>514</ele>
        <time>2013-06-18T11:16:45Z</time>
      </trkpt>
      <trkpt lat="44.344" lon="2.46373">
        <ele>514</ele>
        <time>2013-06-18T11:16:49Z</time>
      </trkpt>
      <trkpt lat="44.34405" lon="2.46373">
        <ele>514</ele>
        <time>2013-06-18T11:16:52Z</time>
      </trkpt>
      <trkpt lat="44.3441" lon="2.46373">
        <ele>514</ele>
        <time>2013-06-18T11:16:55Z</time>
      </trkpt>
      <trkpt lat="44.34416" lon="2.46371">
        <ele>513</ele>
        <time>2013-06-18T11:16:59Z</time>
      </trkpt>
      <trkpt lat="44.3442" lon="2.46372">
        <ele>512</ele>
        <time>2013-06-18T11:17:02Z</time>
      </trkpt>
      <trkpt lat="44.34425" lon="2.46373">
        <ele>511</ele>
        <time>2013-06-18T11:17:05Z</time>
      </trkpt>
      <trkpt lat="44.34431" lon="2.46375">
        <ele>510</ele>
        <time>2013-06-18T11:17:09Z</time>
      </trkpt>
      <trkpt lat="44.34435" lon="2.46378">
        <ele>510</ele>
        <time>2013-06-18T11:17:12Z</time>
      </trkpt>
      <trkpt lat="44.34439" lon="2.4638">
        <ele>511</ele>
        <time>2013-06-18T11:17:15Z</time>
      </trkpt>
      <trkpt lat="44.34443" lon="2.46384">
        <ele>510</ele>
        <time>2013-06-18T11:17:19Z</time>
      </trkpt>
      <trkpt lat="44.34448" lon="2.46387">
        <ele>510</ele>
        <time>2013-06-18T11:17:23Z</time>
      </trkpt>
      <trkpt lat="44.34456" lon="2.46395">
        <ele>510</ele>
        <time>2013-06-18T11:17:31Z</time>
      </trkpt>
      <trkpt lat="44.34463" lon="2.46403">
        <ele>508</ele>
        <time>2013-06-18T11:17:37Z</time>
      </trkpt>
      <trkpt lat="44.34472" lon="2.46409">
        <ele>507</ele>
        <time>2013-06-18T11:17:43Z</time>
      </trkpt>
      <trkpt lat="44.34481" lon="2.46416">
        <ele>507</ele>
        <time>2013-06-18T11:17:49Z</time>
      </trkpt>
      <trkpt lat="44.34492" lon="2.46422">
        <ele>506</ele>
        <time>2013-06-18T11:17:55Z</time>
      </trkpt>
      <trkpt lat="44.34501" lon="2.46429">
        <ele>503</ele>
        <time>2013-06-18T11:18:01Z</time>
      </trkpt>
      <trkpt lat="44.34512" lon="2.46437">
        <ele>499</ele>
        <time>2013-06-18T11:18:16Z</time>
      </trkpt>
      <trkpt lat="44.34521" lon="2.46443">
        <ele>499</ele>
        <time>2013-06-18T11:18:23Z</time>
      </trkpt>
      <trkpt lat="44.34529" lon="2.46448">
        <ele>501</ele>
        <time>2013-06-18T11:18:27Z</time>
      </trkpt>
      <trkpt lat="44.3454" lon="2.46455">
        <ele>502</ele>
        <time>2013-06-18T11:18:33Z</time>
      </trkpt>
      <trkpt lat="44.34549" lon="2.4646">
        <ele>502</ele>
        <time>2013-06-18T11:18:38Z</time>
      </trkpt>
      <trkpt lat="44.34559" lon="2.46467">
        <ele>502</ele>
        <time>2013-06-18T11:18:42Z</time>
      </trkpt>
      <trkpt lat="44.34568" lon="2.4647">
        <ele>501</ele>
        <time>2013-06-18T11:18:47Z</time>
      </trkpt>
      <trkpt lat="44.34578" lon="2.46473">
        <ele>501</ele>
        <time>2013-06-18T11:18:53Z</time>
      </trkpt>
      <trkpt lat="44.34588" lon="2.46476">
        <ele>500</ele>
        <time>2013-06-18T11:19:01Z</time>
      </trkpt>
      <trkpt lat="44.34599" lon="2.46482">
        <ele>498</ele>
        <time>2013-06-18T11:19:09Z</time>
      </trkpt>
      <trkpt lat="44.34609" lon="2.46488">
        <ele>497</ele>
        <time>2013-06-18T11:19:17Z</time>
      </trkpt>
      <trkpt lat="44.34618" lon="2.46494">
        <ele>496</ele>
        <time>2013-06-18T11:19:23Z</time>
      </trkpt>
      <trkpt lat="44.34626" lon="2.46502">
        <ele>495</ele>
        <time>2013-06-18T11:19:30Z</time>
      </trkpt>
      <trkpt lat="44.3463" lon="2.46514">
        <ele>492</ele>
        <time>2013-06-18T11:19:38Z</time>
      </trkpt>
      <trkpt lat="44.3463" lon="2.46529">
        <ele>489</ele>
        <time>2013-06-18T11:19:43Z</time>
      </trkpt>
      <trkpt lat="44.3463" lon="2.46541">
        <ele>486</ele>
        <time>2013-06-18T11:19:49Z</time>
      </trkpt>
      <trkpt lat="44.34641" lon="2.46547">
        <ele>486</ele>
        <time>2013-06-18T11:20:01Z</time>
      </trkpt>
      <trkpt lat="44.3465" lon="2.46543">
        <ele>485</ele>
        <time>2013-06-18T11:20:03Z</time>
      </trkpt>
      <trkpt lat="44.34659" lon="2.46537">
        <ele>485</ele>
        <time>2013-06-18T11:20:10Z</time>
      </trkpt>
      <trkpt lat="44.34661" lon="2.46524">
        <ele>485</ele>
        <time>2013-06-18T11:20:17Z</time>
      </trkpt>
      <trkpt lat="44.3466" lon="2.4651">
        <ele>485</ele>
        <time>2013-06-18T11:20:23Z</time>
      </trkpt>
      <trkpt lat="44.34659" lon="2.46502">
        <ele>484</ele>
        <time>2013-06-18T11:20:26Z</time>
      </trkpt>
      <trkpt lat="44.34658" lon="2.46489">
        <ele>483</ele>
        <time>2013-06-18T11:20:33Z</time>
      </trkpt>
      <trkpt lat="44.34656" lon="2.46478">
        <ele>484</ele>
        <time>2013-06-18T11:20:38Z</time>
      </trkpt>
      <trkpt lat="44.34654" lon="2.46471">
        <ele>484</ele>
        <time>2013-06-18T11:20:41Z</time>
      </trkpt>
      <trkpt lat="44.34652" lon="2.46462">
        <ele>483</ele>
        <time>2013-06-18T11:20:44Z</time>
      </trkpt>
      <trkpt lat="44.34649" lon="2.46449">
        <ele>485</ele>
        <time>2013-06-18T11:20:50Z</time>
      </trkpt>
      <trkpt lat="44.34647" lon="2.4644">
        <ele>486</ele>
        <time>2013-06-18T11:20:55Z</time>
      </trkpt>
      <trkpt lat="44.34644" lon="2.46428">
        <ele>486</ele>
        <time>2013-06-18T11:21:02Z</time>
      </trkpt>
      <trkpt lat="44.34642" lon="2.4642">
        <ele>485</ele>
        <time>2013-06-18T11:21:06Z</time>
      </trkpt>
      <trkpt lat="44.34641" lon="2.46414">
        <ele>485</ele>
        <time>2013-06-18T11:21:09Z</time>
      </trkpt>
      <trkpt lat="44.34639" lon="2.46407">
        <ele>484</ele>
        <time>2013-06-18T11:21:12Z</time>
      </trkpt>
      <trkpt lat="44.34638" lon="2.46401">
        <ele>485</ele>
        <time>2013-06-18T11:21:15Z</time>
      </trkpt>
      <trkpt lat="44.34636" lon="2.46393">
        <ele>484</ele>
        <time>2013-06-18T11:21:19Z</time>
      </trkpt>
      <trkpt lat="44.34633" lon="2.46386">
        <ele>484</ele>
        <time>2013-06-18T11:21:23Z</time>
      </trkpt>
      <trkpt lat="44.3463" lon="2.46375">
        <ele>484</ele>
        <time>2013-06-18T11:21:28Z</time>
      </trkpt>
      <trkpt lat="44.34625" lon="2.46364">
        <ele>482</ele>
        <time>2013-06-18T11:21:33Z</time>
      </trkpt>
      <trkpt lat="44.34623" lon="2.46352">
        <ele>481</ele>
        <time>2013-06-18T11:21:38Z</time>
      </trkpt>
      <trkpt lat="44.34621" lon="2.46345">
        <ele>481</ele>
        <time>2013-06-18T11:21:41Z</time>
      </trkpt>
      <trkpt lat="44.34619" lon="2.46338">
        <ele>481</ele>
        <time>2013-06-18T11:21:43Z</time>
      </trkpt>
      <trkpt lat="44.34615" lon="2.46323">
        <ele>480</ele>
        <time>2013-06-18T11:21:48Z</time>
      </trkpt>
      <trkpt lat="44.34613" lon="2.46317">
        <ele>478</ele>
        <time>2013-06-18T11:21:52Z</time>
      </trkpt>
      <trkpt lat="44.3461" lon="2.46304">
        <ele>478</ele>
        <time>2013-06-18T11:21:58Z</time>
      </trkpt>
      <trkpt lat="44.34609" lon="2.46291">
        <ele>476</ele>
        <time>2013-06-18T11:22:05Z</time>
      </trkpt>
      <trkpt lat="44.34609" lon="2.46284">
        <ele>475</ele>
        <time>2013-06-18T11:22:09Z</time>
      </trkpt>
      <trkpt lat="44.3461" lon="2.46276">
        <ele>475</ele>
        <time>2013-06-18T11:22:13Z</time>
      </trkpt>
      <trkpt lat="44.34614" lon="2.46267">
        <ele>474</ele>
        <time>2013-06-18T11:22:18Z</time>
      </trkpt>
      <trkpt lat="44.34617" lon="2.46262">
        <ele>473</ele>
        <time>2013-06-18T11:22:21Z</time>
      </trkpt>
      <trkpt lat="44.3462" lon="2.46257">
        <ele>474</ele>
        <time>2013-06-18T11:22:24Z</time>
      </trkpt>
      <trkpt lat="44.34625" lon="2.46248">
        <ele>475</ele>
        <time>2013-06-18T11:22:31Z</time>
      </trkpt>
      <trkpt lat="44.34629" lon="2.4624">
        <ele>476</ele>
        <time>2013-06-18T11:22:37Z</time>
      </trkpt>
      <trkpt lat="44.34636" lon="2.4623">
        <ele>475</ele>
        <time>2013-06-18T11:22:44Z</time>
      </trkpt>
      <trkpt lat="44.34645" lon="2.46222">
        <ele>475</ele>
        <time>2013-06-18T11:22:52Z</time>
      </trkpt>
      <trkpt lat="44.34657" lon="2.4622">
        <ele>475</ele>
        <time>2013-06-18T11:22:59Z</time>
      </trkpt>
      <trkpt lat="44.34661" lon="2.46219">
        <ele>476</ele>
        <time>2013-06-18T11:23:16Z</time>
      </trkpt>
      <trkpt lat="44.3469" lon="2.4625">
        <ele>477</ele>
        <time>2013-06-18T11:23:46Z</time>
      </trkpt>
      <trkpt lat="44.34718" lon="2.46264">
        <ele>477</ele>
        <time>2013-06-18T11:23:49Z</time>
      </trkpt>
      <trkpt lat="44.34732" lon="2.46267">
        <ele>477</ele>
        <time>2013-06-18T11:23:51Z</time>
      </trkpt>
      <trkpt lat="44.34745" lon="2.46265">
        <ele>476</ele>
        <time>2013-06-18T11:23:54Z</time>
      </trkpt>
      <trkpt lat="44.34756" lon="2.46259">
        <ele>476</ele>
        <time>2013-06-18T11:23:58Z</time>
      </trkpt>
      <trkpt lat="44.3476" lon="2.46254">
        <ele>475</ele>
        <time>2013-06-18T11:24:11Z</time>
      </trkpt>
      <trkpt lat="44.34772" lon="2.4627">
        <ele>475</ele>
        <time>2013-06-18T11:24:27Z</time>
      </trkpt>
      <trkpt lat="44.3478" lon="2.46279">
        <ele>478</ele>
        <time>2013-06-18T11:24:32Z</time>
      </trkpt>
      <trkpt lat="44.34786" lon="2.46289">
        <ele>481</ele>
        <time>2013-06-18T11:24:39Z</time>
      </trkpt>
      <trkpt lat="44.34796" lon="2.46295">
        <ele>483</ele>
        <time>2013-06-18T11:24:47Z</time>
      </trkpt>
      <trkpt lat="44.34805" lon="2.46295">
        <ele>483</ele>
        <time>2013-06-18T11:24:52Z</time>
      </trkpt>
      <trkpt lat="44.34816" lon="2.46295">
        <ele>482</ele>
        <time>2013-06-18T11:24:59Z</time>
      </trkpt>
      <trkpt lat="44.34826" lon="2.46291">
        <ele>483</ele>
        <time>2013-06-18T11:25:05Z</time>
      </trkpt>
      <trkpt lat="44.34835" lon="2.46286">
        <ele>483</ele>
        <time>2013-06-18T11:25:11Z</time>
      </trkpt>
      <trkpt lat="44.34842" lon="2.46279">
        <ele>484</ele>
        <time>2013-06-18T11:25:18Z</time>
      </trkpt>
      <trkpt lat="44.34851" lon="2.46271">
        <ele>484</ele>
        <time>2013-06-18T11:25:25Z</time>
      </trkpt>
      <trkpt lat="44.34857" lon="2.46262">
        <ele>484</ele>
        <time>2013-06-18T11:25:31Z</time>
      </trkpt>
      <trkpt lat="44.34862" lon="2.4625">
        <ele>484</ele>
        <time>2013-06-18T11:25:38Z</time>
      </trkpt>
      <trkpt lat="44.34866" lon="2.46244">
        <ele>485</ele>
        <time>2013-06-18T11:25:41Z</time>
      </trkpt>
      <trkpt lat="44.34873" lon="2.46234">
        <ele>486</ele>
        <time>2013-06-18T11:25:48Z</time>
      </trkpt>
      <trkpt lat="44.34878" lon="2.46225">
        <ele>488</ele>
        <time>2013-06-18T11:25:53Z</time>
      </trkpt>
      <trkpt lat="44.34884" lon="2.46214">
        <ele>490</ele>
        <time>2013-06-18T11:26:01Z</time>
      </trkpt>
      <trkpt lat="44.3489" lon="2.46204">
        <ele>490</ele>
        <time>2013-06-18T11:26:07Z</time>
      </trkpt>
      <trkpt lat="44.34897" lon="2.46194">
        <ele>490</ele>
        <time>2013-06-18T11:26:15Z</time>
      </trkpt>
      <trkpt lat="44.34903" lon="2.46183">
        <ele>489</ele>
        <time>2013-06-18T11:26:22Z</time>
      </trkpt>
      <trkpt lat="44.34909" lon="2.46173">
        <ele>489</ele>
        <time>2013-06-18T11:26:30Z</time>
      </trkpt>
      <trkpt lat="44.34915" lon="2.46163">
        <ele>491</ele>
        <time>2013-06-18T11:26:35Z</time>
      </trkpt>
      <trkpt lat="44.34921" lon="2.46154">
        <ele>493</ele>
        <time>2013-06-18T11:26:42Z</time>
      </trkpt>
      <trkpt lat="44.34929" lon="2.46145">
        <ele>494</ele>
        <time>2013-06-18T11:26:48Z</time>
      </trkpt>
      <trkpt lat="44.34935" lon="2.46136">
        <ele>495</ele>
        <time>2013-06-18T11:26:53Z</time>
      </trkpt>
      <trkpt lat="44.34943" lon="2.46128">
        <ele>496</ele>
        <time>2013-06-18T11:26:59Z</time>
      </trkpt>
      <trkpt lat="44.3495" lon="2.46119">
        <ele>496</ele>
        <time>2013-06-18T11:27:06Z</time>
      </trkpt>
      <trkpt lat="44.34957" lon="2.4611">
        <ele>497</ele>
        <time>2013-06-18T11:27:13Z</time>
      </trkpt>
      <trkpt lat="44.34965" lon="2.46103">
        <ele>495</ele>
        <time>2013-06-18T11:27:21Z</time>
      </trkpt>
      <trkpt lat="44.34972" lon="2.46093">
        <ele>494</ele>
        <time>2013-06-18T11:27:29Z</time>
      </trkpt>
      <trkpt lat="44.34979" lon="2.46084">
        <ele>494</ele>
        <time>2013-06-18T11:27:36Z</time>
      </trkpt>
      <trkpt lat="44.34987" lon="2.46078">
        <ele>496</ele>
        <time>2013-06-18T11:27:44Z</time>
      </trkpt>
      <trkpt lat="44.34996" lon="2.46065">
        <ele>497</ele>
        <time>2013-06-18T11:27:50Z</time>
      </trkpt>
      <trkpt lat="44.35002" lon="2.46056">
        <ele>497</ele>
        <time>2013-06-18T11:27:56Z</time>
      </trkpt>
      <trkpt lat="44.3501" lon="2.46046">
        <ele>501</ele>
        <time>2013-06-18T11:28:04Z</time>
      </trkpt>
      <trkpt lat="44.35016" lon="2.46036">
        <ele>500</ele>
        <time>2013-06-18T11:28:12Z</time>
      </trkpt>
      <trkpt lat="44.35021" lon="2.46026">
        <ele>497</ele>
        <time>2013-06-18T11:28:19Z</time>
      </trkpt>
      <trkpt lat="44.3503" lon="2.46012">
        <ele>494</ele>
        <time>2013-06-18T11:28:25Z</time>
      </trkpt>
      <trkpt lat="44.35035" lon="2.46001">
        <ele>492</ele>
        <time>2013-06-18T11:28:30Z</time>
      </trkpt>
      <trkpt lat="44.35043" lon="2.4599">
        <ele>490</ele>
        <time>2013-06-18T11:28:35Z</time>
      </trkpt>
      <trkpt lat="44.35051" lon="2.45982">
        <ele>489</ele>
        <time>2013-06-18T11:28:41Z</time>
      </trkpt>
      <trkpt lat="44.3506" lon="2.45975">
        <ele>488</ele>
        <time>2013-06-18T11:28:49Z</time>
      </trkpt>
      <trkpt lat="44.3507" lon="2.45963">
        <ele>487</ele>
        <time>2013-06-18T11:28:59Z</time>
      </trkpt>
      <trkpt lat="44.35078" lon="2.45955">
        <ele>487</ele>
        <time>2013-06-18T11:29:05Z</time>
      </trkpt>
      <trkpt lat="44.3509" lon="2.45947">
        <ele>487</ele>
        <time>2013-06-18T11:29:13Z</time>
      </trkpt>
      <trkpt lat="44.35101" lon="2.45938">
        <ele>487</ele>
        <time>2013-06-18T11:29:21Z</time>
      </trkpt>
      <trkpt lat="44.35125" lon="2.45918">
        <ele>503</ele>
        <time>2013-06-18T11:29:52Z</time>
      </trkpt>
      <trkpt lat="44.35131" lon="2.45909">
        <ele>506</ele>
        <time>2013-06-18T11:29:56Z</time>
      </trkpt>
      <trkpt lat="44.35141" lon="2.45899">
        <ele>509</ele>
        <time>2013-06-18T11:30:05Z</time>
      </trkpt>
      <trkpt lat="44.35149" lon="2.45892">
        <ele>509</ele>
        <time>2013-06-18T11:30:10Z</time>
      </trkpt>
      <trkpt lat="44.35158" lon="2.45886">
        <ele>510</ele>
        <time>2013-06-18T11:30:15Z</time>
      </trkpt>
      <trkpt lat="44.35166" lon="2.45879">
        <ele>511</ele>
        <time>2013-06-18T11:30:21Z</time>
      </trkpt>
      <trkpt lat="44.35173" lon="2.4587">
        <ele>513</ele>
        <time>2013-06-18T11:30:28Z</time>
      </trkpt>
      <trkpt lat="44.3518" lon="2.45862">
        <ele>513</ele>
        <time>2013-06-18T11:30:34Z</time>
      </trkpt>
      <trkpt lat="44.35184" lon="2.45857">
        <ele>515</ele>
        <time>2013-06-18T11:30:37Z</time>
      </trkpt>
      <trkpt lat="44.35187" lon="2.45852">
        <ele>517</ele>
        <time>2013-06-18T11:30:40Z</time>
      </trkpt>
      <trkpt lat="44.35188" lon="2.45845">
        <ele>518</ele>
        <time>2013-06-18T11:30:43Z</time>
      </trkpt>
      <trkpt lat="44.35188" lon="2.45832">
        <ele>519</ele>
        <time>2013-06-18T11:30:47Z</time>
      </trkpt>
      <trkpt lat="44.35186" lon="2.45819">
        <ele>519</ele>
        <time>2013-06-18T11:30:52Z</time>
      </trkpt>
      <trkpt lat="44.35193" lon="2.45811">
        <ele>519</ele>
        <time>2013-06-18T11:31:01Z</time>
      </trkpt>
      <trkpt lat="44.35202" lon="2.45811">
        <ele>518</ele>
        <time>2013-06-18T11:31:04Z</time>
      </trkpt>
      <trkpt lat="44.35214" lon="2.45812">
        <ele>516</ele>
        <time>2013-06-18T11:31:33Z</time>
      </trkpt>
      <trkpt lat="44.35225" lon="2.45815">
        <ele>516</ele>
        <time>2013-06-18T11:31:43Z</time>
      </trkpt>
      <trkpt lat="44.35234" lon="2.45822">
        <ele>515</ele>
        <time>2013-06-18T11:31:50Z</time>
      </trkpt>
      <trkpt lat="44.35243" lon="2.45821">
        <ele>515</ele>
        <time>2013-06-18T11:31:58Z</time>
      </trkpt>
      <trkpt lat="44.35243" lon="2.45814">
        <ele>515</ele>
        <time>2013-06-18T11:32:00Z</time>
      </trkpt>
      <trkpt lat="44.35241" lon="2.45808">
        <ele>514</ele>
        <time>2013-06-18T11:32:04Z</time>
      </trkpt>
      <trkpt lat="44.35234" lon="2.45798">
        <ele>514</ele>
        <time>2013-06-18T11:32:12Z</time>
      </trkpt>
      <trkpt lat="44.35229" lon="2.45788">
        <ele>512</ele>
        <time>2013-06-18T11:32:17Z</time>
      </trkpt>
      <trkpt lat="44.35222" lon="2.45778">
        <ele>511</ele>
        <time>2013-06-18T11:32:25Z</time>
      </trkpt>
      <trkpt lat="44.35214" lon="2.4577">
        <ele>511</ele>
        <time>2013-06-18T11:32:34Z</time>
      </trkpt>
      <trkpt lat="44.35206" lon="2.45763">
        <ele>512</ele>
        <time>2013-06-18T11:32:42Z</time>
      </trkpt>
      <trkpt lat="44.35197" lon="2.45757">
        <ele>509</ele>
        <time>2013-06-18T11:32:50Z</time>
      </trkpt>
      <trkpt lat="44.35187" lon="2.45752">
        <ele>508</ele>
        <time>2013-06-18T11:32:55Z</time>
      </trkpt>
      <trkpt lat="44.35178" lon="2.45748">
        <ele>508</ele>
        <time>2013-06-18T11:33:03Z</time>
      </trkpt>
      <trkpt lat="44.35168" lon="2.45743">
        <ele>506</ele>
        <time>2013-06-18T11:33:12Z</time>
      </trkpt>
      <trkpt lat="44.35159" lon="2.45738">
        <ele>504</ele>
        <time>2013-06-18T11:33:20Z</time>
      </trkpt>
      <trkpt lat="44.3515" lon="2.45733">
        <ele>503</ele>
        <time>2013-06-18T11:33:26Z</time>
      </trkpt>
      <trkpt lat="44.35141" lon="2.45727">
        <ele>502</ele>
        <time>2013-06-18T11:33:34Z</time>
      </trkpt>
      <trkpt lat="44.35131" lon="2.45725">
        <ele>500</ele>
        <time>2013-06-18T11:33:40Z</time>
      </trkpt>
      <trkpt lat="44.35122" lon="2.45723">
        <ele>499</ele>
        <time>2013-06-18T11:33:47Z</time>
      </trkpt>
      <trkpt lat="44.35112" lon="2.45721">
        <ele>498</ele>
        <time>2013-06-18T11:33:54Z</time>
      </trkpt>
      <trkpt lat="44.35102" lon="2.4572">
        <ele>495</ele>
        <time>2013-06-18T11:34:02Z</time>
      </trkpt>
      <trkpt lat="44.35092" lon="2.45717">
        <ele>493</ele>
        <time>2013-06-18T11:34:12Z</time>
      </trkpt>
      <trkpt lat="44.35082" lon="2.45716">
        <ele>493</ele>
        <time>2013-06-18T11:34:18Z</time>
      </trkpt>
      <trkpt lat="44.35072" lon="2.45714">
        <ele>492</ele>
        <time>2013-06-18T11:34:24Z</time>
      </trkpt>
      <trkpt lat="44.35062" lon="2.45712">
        <ele>490</ele>
        <time>2013-06-18T11:34:30Z</time>
      </trkpt>
      <trkpt lat="44.35052" lon="2.4571">
        <ele>489</ele>
        <time>2013-06-18T11:34:37Z</time>
      </trkpt>
      <trkpt lat="44.3504" lon="2.45709">
        <ele>489</ele>
        <time>2013-06-18T11:34:47Z</time>
      </trkpt>
      <trkpt lat="44.3503" lon="2.45705">
        <ele>489</ele>
        <time>2013-06-18T11:34:54Z</time>
      </trkpt>
      <trkpt lat="44.35019" lon="2.45702">
        <ele>489</ele>
        <time>2013-06-18T11:35:00Z</time>
      </trkpt>
      <trkpt lat="44.3501" lon="2.45698">
        <ele>488</ele>
        <time>2013-06-18T11:35:10Z</time>
      </trkpt>
      <trkpt lat="44.35" lon="2.45698">
        <ele>488</ele>
        <time>2013-06-18T11:35:18Z</time>
      </trkpt>
      <trkpt lat="44.34991" lon="2.45694">
        <ele>489</ele>
        <time>2013-06-18T11:35:25Z</time>
      </trkpt>
      <trkpt lat="44.34979" lon="2.45687">
        <ele>490</ele>
        <time>2013-06-18T11:35:36Z</time>
      </trkpt>
      <trkpt lat="44.34973" lon="2.45675">
        <ele>489</ele>
        <time>2013-06-18T11:35:42Z</time>
      </trkpt>
      <trkpt lat="44.34963" lon="2.45673">
        <ele>487</ele>
        <time>2013-06-18T11:35:47Z</time>
      </trkpt>
      <trkpt lat="44.34953" lon="2.45673">
        <ele>484</ele>
        <time>2013-06-18T11:35:54Z</time>
      </trkpt>
      <trkpt lat="44.34945" lon="2.45667">
        <ele>485</ele>
        <time>2013-06-18T11:35:59Z</time>
      </trkpt>
      <trkpt lat="44.34936" lon="2.45664">
        <ele>486</ele>
        <time>2013-06-18T11:36:05Z</time>
      </trkpt>
      <trkpt lat="44.34926" lon="2.45661">
        <ele>489</ele>
        <time>2013-06-18T11:36:12Z</time>
      </trkpt>
      <trkpt lat="44.34916" lon="2.45651">
        <ele>493</ele>
        <time>2013-06-18T11:36:21Z</time>
      </trkpt>
      <trkpt lat="44.3491" lon="2.45641">
        <ele>495</ele>
        <time>2013-06-18T11:36:27Z</time>
      </trkpt>
      <trkpt lat="44.34904" lon="2.45626">
        <ele>496</ele>
        <time>2013-06-18T11:36:34Z</time>
      </trkpt>
      <trkpt lat="44.34906" lon="2.45611">
        <ele>497</ele>
        <time>2013-06-18T11:36:42Z</time>
      </trkpt>
      <trkpt lat="44.34906" lon="2.45597">
        <ele>498</ele>
        <time>2013-06-18T11:36:49Z</time>
      </trkpt>
      <trkpt lat="44.34901" lon="2.45585">
        <ele>499</ele>
        <time>2013-06-18T11:36:59Z</time>
      </trkpt>
      <trkpt lat="44.349" lon="2.45567">
        <ele>500</ele>
        <time>2013-06-18T11:37:11Z</time>
      </trkpt>
      <trkpt lat="44.34902" lon="2.45554">
        <ele>499</ele>
        <time>2013-06-18T11:37:17Z</time>
      </trkpt>
      <trkpt lat="44.34907" lon="2.45541">
        <ele>498</ele>
        <time>2013-06-18T11:37:26Z</time>
      </trkpt>
      <trkpt lat="44.34911" lon="2.45524">
        <ele>497</ele>
        <time>2013-06-18T11:37:33Z</time>
      </trkpt>
      <trkpt lat="44.34913" lon="2.4551">
        <ele>498</ele>
        <time>2013-06-18T11:37:39Z</time>
      </trkpt>
      <trkpt lat="44.34913" lon="2.45496">
        <ele>500</ele>
        <time>2013-06-18T11:37:45Z</time>
      </trkpt>
      <trkpt lat="44.34906" lon="2.45487">
        <ele>499</ele>
        <time>2013-06-18T11:37:52Z</time>
      </trkpt>
      <trkpt lat="44.34908" lon="2.45466">
        <ele>488</ele>
        <time>2013-06-18T11:38:11Z</time>
      </trkpt>
      <trkpt lat="44.34915" lon="2.45456">
        <ele>481</ele>
        <time>2013-06-18T11:38:19Z</time>
      </trkpt>
      <trkpt lat="44.3492" lon="2.45445">
        <ele>478</ele>
        <time>2013-06-18T11:38:26Z</time>
      </trkpt>
      <trkpt lat="44.34926" lon="2.45434">
        <ele>479</ele>
        <time>2013-06-18T11:38:33Z</time>
      </trkpt>
      <trkpt lat="44.34933" lon="2.45425">
        <ele>480</ele>
        <time>2013-06-18T11:38:38Z</time>
      </trkpt>
      <trkpt lat="44.34941" lon="2.45416">
        <ele>480</ele>
        <time>2013-06-18T11:38:44Z</time>
      </trkpt>
      <trkpt lat="44.3495" lon="2.45411">
        <ele>478</ele>
        <time>2013-06-18T11:38:49Z</time>
      </trkpt>
      <trkpt lat="44.34958" lon="2.4542">
        <ele>476</ele>
        <time>2013-06-18T11:38:56Z</time>
      </trkpt>
      <trkpt lat="44.34966" lon="2.45418">
        <ele>470</ele>
        <time>2013-06-18T11:39:16Z</time>
      </trkpt>
      <trkpt lat="44.34972" lon="2.45418">
        <ele>466</ele>
        <time>2013-06-18T11:40:03Z</time>
      </trkpt>
      <trkpt lat="44.34965" lon="2.4541">
        <ele>466</ele>
        <time>2013-06-18T11:43:06Z</time>
      </trkpt>
    </trkseg>
  </trk>
</gpx>